<?xml version='1.0' encoding='UTF-8'?><gpx version="1.1" creator="JPX - https://github.com/jenetics/jpx" xmlns="http://www.topografix.com/GPX/1/1"><trk><trkseg><trkpt lat="45.83887920292968" lon="12.123051515265512"><ele>115.00000000000001</ele><time>2026-03-23T13:57:19Z</time></trkpt><trkpt lat="45.838833749606565" lon="12.12297169472576"><ele>115.0</ele><time>2026-03-23T13:57:20Z</time></trkpt><trkpt lat="45.83878474790147" lon="12.122886783830749"><ele>115.0</ele><time>2026-03-23T13:57:21Z</time></trkpt><trkpt lat="45.838735178441155" lon="12.122798816869633"><ele>115.0</ele><time>2026-03-23T13:57:22Z</time></trkpt><trkpt lat="45.8386919292403" lon="12.122710816653035"><ele>115.00000000000001</ele><time>2026-03-23T13:57:23Z</time></trkpt><trkpt lat="45.83864052735843" lon="12.122617076672634"><ele>115.0</ele><time>2026-03-23T13:57:24Z</time></trkpt><trkpt lat="45.83857804524722" lon="12.122473312453275"><ele>114.66666666666667</ele><time>2026-03-23T13:57:26Z</time></trkpt><trkpt lat="45.83855540622315" lon="12.122357148970156"><ele>114.33333333333334</ele><time>2026-03-23T13:57:26.999Z</time></trkpt><trkpt lat="45.8385220237588" lon="12.12222101029122"><ele>114.0</ele><time>2026-03-23T13:57:27.999Z</time></trkpt><trkpt lat="45.83847919691676" lon="12.122092277738071"><ele>113.66666666666666</ele><time>2026-03-23T13:57:28.999Z</time></trkpt><trkpt lat="45.83844472040769" lon="12.121994804495996"><ele>113.33333333333333</ele><time>2026-03-23T13:57:29.999Z</time></trkpt><trkpt lat="45.83841879971844" lon="12.121891392329948"><ele>113.0</ele><time>2026-03-23T13:57:30.999Z</time></trkpt><trkpt lat="45.83839211525246" lon="12.12179581002022"><ele>113.0</ele><time>2026-03-23T13:57:31.999Z</time></trkpt><trkpt lat="45.838364792684494" lon="12.121701383997213"><ele>113.00000000000001</ele><time>2026-03-23T13:57:32.999Z</time></trkpt><trkpt lat="45.83831716925664" lon="12.121602476464913"><ele>113.00000000000001</ele><time>2026-03-23T13:57:33.999Z</time></trkpt><trkpt lat="45.83827120225441" lon="12.121497576154681"><ele>113.0</ele><time>2026-03-23T13:57:34.999Z</time></trkpt><trkpt lat="45.83821332684944" lon="12.121368665933932"><ele>113.0</ele><time>2026-03-23T13:57:35.999Z</time></trkpt><trkpt lat="45.838150601304875" lon="12.121227204051097"><ele>112.0</ele><time>2026-03-23T13:57:36.999Z</time></trkpt><trkpt lat="45.83807788899235" lon="12.12110124448362"><ele>111.00000000000001</ele><time>2026-03-23T13:57:37.999Z</time></trkpt><trkpt lat="45.83802257146887" lon="12.120971685640857"><ele>110.00000000000001</ele><time>2026-03-23T13:57:38.999Z</time></trkpt><trkpt lat="45.837961989187455" lon="12.120846526505622"><ele>109.0</ele><time>2026-03-23T13:57:39.999Z</time></trkpt><trkpt lat="45.837901214938206" lon="12.120723259263036"><ele>108.0</ele><time>2026-03-23T13:57:40.999Z</time></trkpt><trkpt lat="45.837843356926044" lon="12.12061533656972"><ele>107.60000000000001</ele><time>2026-03-23T13:57:41.999Z</time></trkpt><trkpt lat="45.83779137526064" lon="12.12051451991087"><ele>107.20000000000002</ele><time>2026-03-23T13:57:42.999Z</time></trkpt><trkpt lat="45.83772968094509" lon="12.120413209988683"><ele>106.8</ele><time>2026-03-23T13:57:43.999Z</time></trkpt><trkpt lat="45.83763951088677" lon="12.12033471460963"><ele>106.4</ele><time>2026-03-23T13:57:44.999Z</time></trkpt><trkpt lat="45.83754539347797" lon="12.120226764882048"><ele>106.0</ele><time>2026-03-23T13:57:45.999Z</time></trkpt><trkpt lat="45.83746385074136" lon="12.120124445669537"><ele>106.66666666666667</ele><time>2026-03-23T13:57:46.999Z</time></trkpt><trkpt lat="45.8374046567802" lon="12.120019285684625"><ele>107.33333333333334</ele><time>2026-03-23T13:57:47.999Z</time></trkpt><trkpt lat="45.83734810716881" lon="12.119926496043831"><ele>108.0</ele><time>2026-03-23T13:57:48.999Z</time></trkpt><trkpt lat="45.83729239568305" lon="12.119839446545882"><ele>108.66666666666666</ele><time>2026-03-23T13:57:49.999Z</time></trkpt><trkpt lat="45.83722181285012" lon="12.119772460215557"><ele>109.33333333333333</ele><time>2026-03-23T13:57:50.999Z</time></trkpt><trkpt lat="45.83712948076254" lon="12.119709586904637"><ele>110.0</ele><time>2026-03-23T13:57:51.999Z</time></trkpt><trkpt lat="45.837049373732455" lon="12.119589681613054"><ele>109.99999999999999</ele><time>2026-03-23T13:57:53.999Z</time></trkpt><trkpt lat="45.8370752028626" lon="12.119437491527934"><ele>110.0</ele><time>2026-03-23T13:57:55.999Z</time></trkpt><trkpt lat="45.83708797032753" lon="12.11934581948746"><ele>110.0</ele><time>2026-03-23T13:57:56.999Z</time></trkpt><trkpt lat="45.8370915381001" lon="12.119227027577466"><ele>110.0</ele><time>2026-03-23T13:57:57.999Z</time></trkpt><trkpt lat="45.837079164085395" lon="12.119100431109045"><ele>109.99999999999999</ele><time>2026-03-23T13:57:58.999Z</time></trkpt><trkpt lat="45.83707317224434" lon="12.11897538216866"><ele>110.0</ele><time>2026-03-23T13:57:59.999Z</time></trkpt><trkpt lat="45.837067657043896" lon="12.11886612214234"><ele>109.99999999999999</ele><time>2026-03-23T13:58:00.999Z</time></trkpt><trkpt lat="45.83706701275386" lon="12.118748473105361"><ele>110.0</ele><time>2026-03-23T13:58:01.999Z</time></trkpt><trkpt lat="45.83706214165024" lon="12.118625273299724"><ele>110.0</ele><time>2026-03-23T13:58:02.999Z</time></trkpt><trkpt lat="45.83705692364586" lon="12.118497509143753"><ele>110.0</ele><time>2026-03-23T13:58:03.999Z</time></trkpt><trkpt lat="45.83705044956571" lon="12.118372660329127"><ele>109.99999999999999</ele><time>2026-03-23T13:58:04.999Z</time></trkpt><trkpt lat="45.83703983177392" lon="12.118250322401998"><ele>110.0</ele><time>2026-03-23T13:58:05.999Z</time></trkpt><trkpt lat="45.83702548677654" lon="12.118109106569477"><ele>110.0</ele><time>2026-03-23T13:58:06.999Z</time></trkpt><trkpt lat="45.837006152433275" lon="12.117957198712848"><ele>110.0</ele><time>2026-03-23T13:58:07.999Z</time></trkpt><trkpt lat="45.83699892351447" lon="12.117817660814707"><ele>110.0</ele><time>2026-03-23T13:58:08.999Z</time></trkpt><trkpt lat="45.836993612009394" lon="12.117683525540484"><ele>110.0</ele><time>2026-03-23T13:58:09.999Z</time></trkpt><trkpt lat="45.83698912183719" lon="12.117557233071397"><ele>110.0</ele><time>2026-03-23T13:58:10.999Z</time></trkpt><trkpt lat="45.83698407578895" lon="12.117441342476418"><ele>110.16666666666666</ele><time>2026-03-23T13:58:11.999Z</time></trkpt><trkpt lat="45.83697104454891" lon="12.117340522310771"><ele>110.33333333333333</ele><time>2026-03-23T13:58:12.999Z</time></trkpt><trkpt lat="45.83695439571388" lon="12.117231956313375"><ele>110.5</ele><time>2026-03-23T13:58:13.999Z</time></trkpt><trkpt lat="45.83691762058236" lon="12.117126720150393"><ele>110.66666666666666</ele><time>2026-03-23T13:58:14.999Z</time></trkpt><trkpt lat="45.836879060273205" lon="12.117017529995069"><ele>110.83333333333333</ele><time>2026-03-23T13:58:15.999Z</time></trkpt><trkpt lat="45.83685840823812" lon="12.116898299197548"><ele>111.0</ele><time>2026-03-23T13:58:16.999Z</time></trkpt><trkpt lat="45.83684557233437" lon="12.116784735290736"><ele>111.0</ele><time>2026-03-23T13:58:17.999Z</time></trkpt><trkpt lat="45.836840044097755" lon="12.11664715899333"><ele>111.0</ele><time>2026-03-23T13:58:18.999Z</time></trkpt><trkpt lat="45.83683437913366" lon="12.116546563827809"><ele>111.0</ele><time>2026-03-23T13:58:19.999Z</time></trkpt><trkpt lat="45.83682516632925" lon="12.116439971784056"><ele>111.0</ele><time>2026-03-23T13:58:20.999Z</time></trkpt><trkpt lat="45.8367745874964" lon="12.116333044476637"><ele>111.0</ele><time>2026-03-23T13:58:21.999Z</time></trkpt><trkpt lat="45.836711754774434" lon="12.11623101413437"><ele>111.0</ele><time>2026-03-23T13:58:22.999Z</time></trkpt><trkpt lat="45.836664414791244" lon="12.11615583781558"><ele>111.83333333333333</ele><time>2026-03-23T13:58:23.999Z</time></trkpt><trkpt lat="45.83659787320848" lon="12.116059843405276"><ele>112.66666666666666</ele><time>2026-03-23T13:58:24.999Z</time></trkpt><trkpt lat="45.836580443826705" lon="12.115958984178372"><ele>113.5</ele><time>2026-03-23T13:58:25.999Z</time></trkpt><trkpt lat="45.836572904666546" lon="12.115850655493729"><ele>114.33333333333333</ele><time>2026-03-23T13:58:26.999Z</time></trkpt><trkpt lat="45.836562087428774" lon="12.115664967298455"><ele>115.16666666666666</ele><time>2026-03-23T13:58:28.999Z</time></trkpt><trkpt lat="45.83653527931837" lon="12.115573050000425"><ele>116.0</ele><time>2026-03-23T13:58:29.999Z</time></trkpt><trkpt lat="45.83648587759907" lon="12.11551604996994"><ele>115.99999999999999</ele><time>2026-03-23T13:58:30.999Z</time></trkpt><trkpt lat="45.83642061547975" lon="12.115449258169786"><ele>116.0</ele><time>2026-03-23T13:58:31.999Z</time></trkpt><trkpt lat="45.83636203815968" lon="12.115395047355582"><ele>116.0</ele><time>2026-03-23T13:58:32.999Z</time></trkpt><trkpt lat="45.8363054859808" lon="12.115315145709273"><ele>116.0</ele><time>2026-03-23T13:58:34.999Z</time></trkpt><trkpt lat="45.836258580293375" lon="12.115242785206718"><ele>115.99999999999999</ele><time>2026-03-23T13:58:36.999Z</time></trkpt><trkpt lat="45.836270785372776" lon="12.11512672940115"><ele>116.0</ele><time>2026-03-23T13:58:38.999Z</time></trkpt><trkpt lat="45.83628101052672" lon="12.114961606978152"><ele>116.0</ele><time>2026-03-23T13:58:40.999Z</time></trkpt><trkpt lat="45.83633853991468" lon="12.114859690433603"><ele>116.0</ele><time>2026-03-23T13:58:44.999Z</time></trkpt><trkpt lat="45.83630229115799" lon="12.114741647079608"><ele>116.0</ele><time>2026-03-23T13:58:46.999Z</time></trkpt><trkpt lat="45.836253816021184" lon="12.114663889460008"><ele>116.0</ele><time>2026-03-23T13:58:47.999Z</time></trkpt><trkpt lat="45.836181586463404" lon="12.114489039062946"><ele>116.0</ele><time>2026-03-23T13:58:49.999Z</time></trkpt><trkpt lat="45.83613686103636" lon="12.114410173262284"><ele>115.99999999999999</ele><time>2026-03-23T13:58:50.999Z</time></trkpt><trkpt lat="45.836095463817635" lon="12.114323493087726"><ele>116.0</ele><time>2026-03-23T13:58:51.999Z</time></trkpt><trkpt lat="45.8360541192465" lon="12.114189710951152"><ele>116.0</ele><time>2026-03-23T13:58:53.999Z</time></trkpt><trkpt lat="45.83604670640277" lon="12.114048888206016"><ele>116.0</ele><time>2026-03-23T13:58:54.999Z</time></trkpt><trkpt lat="45.83602276073043" lon="12.113951032307336"><ele>115.99999999999999</ele><time>2026-03-23T13:58:56.999Z</time></trkpt><trkpt lat="45.835938407661" lon="12.113871320278903"><ele>116.0</ele><time>2026-03-23T13:58:58.999Z</time></trkpt><trkpt lat="45.83588874973986" lon="12.113753632264402"><ele>116.33333333333333</ele><time>2026-03-23T13:59:01.999Z</time></trkpt><trkpt lat="45.83591855486017" lon="12.11366459296475"><ele>116.66666666666666</ele><time>2026-03-23T13:59:03.999Z</time></trkpt><trkpt lat="45.83592091174948" lon="12.113529902925762"><ele>117.0</ele><time>2026-03-23T13:59:05.999Z</time></trkpt><trkpt lat="45.83587753743555" lon="12.113458178272253"><ele>117.33333333333334</ele><time>2026-03-23T13:59:06.999Z</time></trkpt><trkpt lat="45.83587152636325" lon="12.113362946791066"><ele>117.66666666666667</ele><time>2026-03-23T13:59:07.999Z</time></trkpt><trkpt lat="45.835903916643346" lon="12.113250329772049"><ele>118.0</ele><time>2026-03-23T13:59:09.999Z</time></trkpt><trkpt lat="45.83591827369826" lon="12.113137943651601"><ele>118.0</ele><time>2026-03-23T13:59:10.999Z</time></trkpt><trkpt lat="45.835911391511644" lon="12.113028758646463"><ele>118.00000000000001</ele><time>2026-03-23T13:59:12.999Z</time></trkpt><trkpt lat="45.83589325788589" lon="12.11286483026734"><ele>118.00000000000001</ele><time>2026-03-23T13:59:14.999Z</time></trkpt><trkpt lat="45.83589673477221" lon="12.112749457053377"><ele>118.0</ele><time>2026-03-23T13:59:16.999Z</time></trkpt><trkpt lat="45.836015716519846" lon="12.11268766290043"><ele>118.0</ele><time>2026-03-23T13:59:19.999Z</time></trkpt><trkpt lat="45.836064483295345" lon="12.112624512964668"><ele>118.16666666666667</ele><time>2026-03-23T13:59:20.999Z</time></trkpt><trkpt lat="45.83603027720411" lon="12.1124832012913"><ele>118.33333333333334</ele><time>2026-03-23T13:59:22.999Z</time></trkpt><trkpt lat="45.835976911928775" lon="12.112375258658625"><ele>118.5</ele><time>2026-03-23T13:59:24.999Z</time></trkpt><trkpt lat="45.835937223466146" lon="12.112263812282585"><ele>118.66666666666666</ele><time>2026-03-23T13:59:26.999Z</time></trkpt><trkpt lat="45.83588183555372" lon="12.112203263707306"><ele>118.83333333333333</ele><time>2026-03-23T13:59:27.999Z</time></trkpt><trkpt lat="45.835822841811414" lon="12.112162507561113"><ele>119.0</ele><time>2026-03-23T13:59:28.999Z</time></trkpt><trkpt lat="45.83572568462804" lon="12.112146655763352"><ele>119.0</ele><time>2026-03-23T13:59:30.999Z</time></trkpt><trkpt lat="45.83569889470709" lon="12.112013749820985"><ele>119.0</ele><time>2026-03-23T13:59:32.999Z</time></trkpt><trkpt lat="45.83565826025392" lon="12.111914934011208"><ele>119.0</ele><time>2026-03-23T13:59:34.999Z</time></trkpt><trkpt lat="45.835705915084425" lon="12.111746741206668"><ele>119.0</ele><time>2026-03-23T13:59:36.999Z</time></trkpt><trkpt lat="45.83572409782884" lon="12.111645972982208"><ele>119.0</ele><time>2026-03-23T13:59:37.999Z</time></trkpt><trkpt lat="45.8357422526822" lon="12.111533082731146"><ele>119.16666666666666</ele><time>2026-03-23T13:59:38.999Z</time></trkpt><trkpt lat="45.83576110748644" lon="12.111416381853404"><ele>119.33333333333333</ele><time>2026-03-23T13:59:39.999Z</time></trkpt><trkpt lat="45.835776161634584" lon="12.11127303865432"><ele>119.5</ele><time>2026-03-23T13:59:40.999Z</time></trkpt><trkpt lat="45.83578721463484" lon="12.111137282282138"><ele>119.66666666666666</ele><time>2026-03-23T13:59:41.999Z</time></trkpt><trkpt lat="45.83578726003221" lon="12.111028491059768"><ele>119.83333333333333</ele><time>2026-03-23T13:59:42.999Z</time></trkpt><trkpt lat="45.83578902771064" lon="12.110914103685264"><ele>120.0</ele><time>2026-03-23T13:59:43.999Z</time></trkpt><trkpt lat="45.83578782692904" lon="12.110790838604043"><ele>119.4</ele><time>2026-03-23T13:59:44.999Z</time></trkpt><trkpt lat="45.83579579387331" lon="12.110657023039607"><ele>118.8</ele><time>2026-03-23T13:59:45.999Z</time></trkpt><trkpt lat="45.83580197469568" lon="12.110513043797948"><ele>118.19999999999999</ele><time>2026-03-23T13:59:46.999Z</time></trkpt><trkpt lat="45.83579504160432" lon="12.110360610412307"><ele>117.6</ele><time>2026-03-23T13:59:47.999Z</time></trkpt><trkpt lat="45.83578258165611" lon="12.110188572358972"><ele>117.0</ele><time>2026-03-23T13:59:48.999Z</time></trkpt><trkpt lat="45.83575915701604" lon="12.11002523958176"><ele>116.0</ele><time>2026-03-23T13:59:49.999Z</time></trkpt><trkpt lat="45.83573250891812" lon="12.109837961199645"><ele>115.0</ele><time>2026-03-23T13:59:50.999Z</time></trkpt><trkpt lat="45.835698348252016" lon="12.10964642727171"><ele>114.0</ele><time>2026-03-23T13:59:51.999Z</time></trkpt><trkpt lat="45.83567286723789" lon="12.10947133444108"><ele>113.0</ele><time>2026-03-23T13:59:52.999Z</time></trkpt><trkpt lat="45.83565160543083" lon="12.109302655310163"><ele>113.0</ele><time>2026-03-23T13:59:53.999Z</time></trkpt><trkpt lat="45.83562670551782" lon="12.109132088913412"><ele>113.0</ele><time>2026-03-23T13:59:54.999Z</time></trkpt><trkpt lat="45.83560797225535" lon="12.108970295337002"><ele>113.0</ele><time>2026-03-23T13:59:55.999Z</time></trkpt><trkpt lat="45.83558260565077" lon="12.108806484069921"><ele>113.0</ele><time>2026-03-23T13:59:56.999Z</time></trkpt><trkpt lat="45.83555829817297" lon="12.108633525949315"><ele>112.75</ele><time>2026-03-23T13:59:57.999Z</time></trkpt><trkpt lat="45.835540696548314" lon="12.108476796395783"><ele>112.5</ele><time>2026-03-23T13:59:58.999Z</time></trkpt><trkpt lat="45.83552480117448" lon="12.10831045845514"><ele>112.25</ele><time>2026-03-23T13:59:59.999Z</time></trkpt><trkpt lat="45.83551752919177" lon="12.10812243092255"><ele>112.0</ele><time>2026-03-23T14:00:00.999Z</time></trkpt><trkpt lat="45.8355073048363" lon="12.107953373749453"><ele>111.8</ele><time>2026-03-23T14:00:01.999Z</time></trkpt><trkpt lat="45.835486994099575" lon="12.107820375321426"><ele>111.6</ele><time>2026-03-23T14:00:02.999Z</time></trkpt><trkpt lat="45.83545881986993" lon="12.107680052435091"><ele>111.39999999999999</ele><time>2026-03-23T14:00:03.999Z</time></trkpt><trkpt lat="45.83541778091424" lon="12.107548032341509"><ele>111.19999999999999</ele><time>2026-03-23T14:00:04.999Z</time></trkpt><trkpt lat="45.835376883713124" lon="12.107431277407287"><ele>111.0</ele><time>2026-03-23T14:00:05.999Z</time></trkpt><trkpt lat="45.835350358284515" lon="12.107320588222766"><ele>110.8</ele><time>2026-03-23T14:00:06.999Z</time></trkpt><trkpt lat="45.83533977147261" lon="12.10717416312325"><ele>110.6</ele><time>2026-03-23T14:00:07.999Z</time></trkpt><trkpt lat="45.83532015254105" lon="12.107007298703152"><ele>110.4</ele><time>2026-03-23T14:00:08.999Z</time></trkpt><trkpt lat="45.83530154824258" lon="12.10687713236928"><ele>110.2</ele><time>2026-03-23T14:00:09.999Z</time></trkpt><trkpt lat="45.83527390520703" lon="12.106749865194752"><ele>110.0</ele><time>2026-03-23T14:00:10.999Z</time></trkpt><trkpt lat="45.835271631057815" lon="12.106615611108872"><ele>110.25</ele><time>2026-03-23T14:00:11.999Z</time></trkpt><trkpt lat="45.83526709993934" lon="12.106464158687988"><ele>110.5</ele><time>2026-03-23T14:00:12.999Z</time></trkpt><trkpt lat="45.83524712801667" lon="12.106310529768509"><ele>110.75</ele><time>2026-03-23T14:00:13.999Z</time></trkpt><trkpt lat="45.835224286420384" lon="12.106127815674084"><ele>111.0</ele><time>2026-03-23T14:00:14.999Z</time></trkpt><trkpt lat="45.83519207279488" lon="12.105974194100082"><ele>111.0</ele><time>2026-03-23T14:00:15.999Z</time></trkpt><trkpt lat="45.83516313828144" lon="12.105837677474405"><ele>111.0</ele><time>2026-03-23T14:00:16.999Z</time></trkpt><trkpt lat="45.83513851449858" lon="12.105737903367034"><ele>111.0</ele><time>2026-03-23T14:00:17.999Z</time></trkpt><trkpt lat="45.83509774417644" lon="12.105630981399445"><ele>111.0</ele><time>2026-03-23T14:00:18.999Z</time></trkpt><trkpt lat="45.835053578388866" lon="12.105493945510649"><ele>111.0</ele><time>2026-03-23T14:00:19.999Z</time></trkpt><trkpt lat="45.83501200087565" lon="12.105332521181435"><ele>111.6</ele><time>2026-03-23T14:00:20.999Z</time></trkpt><trkpt lat="45.83497446313625" lon="12.105207943330399"><ele>112.19999999999999</ele><time>2026-03-23T14:00:21.999Z</time></trkpt><trkpt lat="45.83492480234084" lon="12.105035790325319"><ele>112.80000000000001</ele><time>2026-03-23T14:00:22.999Z</time></trkpt><trkpt lat="45.83486887775445" lon="12.104907962730893"><ele>113.4</ele><time>2026-03-23T14:00:23.999Z</time></trkpt><trkpt lat="45.83483153710476" lon="12.104776076396337"><ele>114.0</ele><time>2026-03-23T14:00:24.999Z</time></trkpt><trkpt lat="45.83481085035708" lon="12.104673461352707"><ele>114.0</ele><time>2026-03-23T14:00:25.999Z</time></trkpt><trkpt lat="45.83473424583474" lon="12.104528166886805"><ele>114.0</ele><time>2026-03-23T14:00:27.999Z</time></trkpt><trkpt lat="45.83463003348744" lon="12.104456538993375"><ele>114.0</ele><time>2026-03-23T14:00:29.999Z</time></trkpt><trkpt lat="45.834506579933304" lon="12.104504008355189"><ele>114.0</ele><time>2026-03-23T14:00:31.999Z</time></trkpt><trkpt lat="45.83443542832239" lon="12.104569336270606"><ele>114.0</ele><time>2026-03-23T14:00:32.999Z</time></trkpt><trkpt lat="45.83436366126093" lon="12.104642772002475"><ele>114.0</ele><time>2026-03-23T14:00:33.999Z</time></trkpt><trkpt lat="45.834280014416066" lon="12.10472048443803"><ele>114.0</ele><time>2026-03-23T14:00:34.999Z</time></trkpt><trkpt lat="45.83420287728009" lon="12.10478039460981"><ele>114.0</ele><time>2026-03-23T14:00:35.999Z</time></trkpt><trkpt lat="45.834133252911066" lon="12.104819216923204"><ele>114.0</ele><time>2026-03-23T14:00:36.999Z</time></trkpt><trkpt lat="45.83402339568752" lon="12.104767480062074"><ele>115.33333333333333</ele><time>2026-03-23T14:00:38.999Z</time></trkpt><trkpt lat="45.833974530841175" lon="12.104701282127047"><ele>116.66666666666666</ele><time>2026-03-23T14:00:39.999Z</time></trkpt><trkpt lat="45.83393418697972" lon="12.1045849675682"><ele>118.0</ele><time>2026-03-23T14:00:40.999Z</time></trkpt><trkpt lat="45.833891593633076" lon="12.104463567531488"><ele>119.33333333333333</ele><time>2026-03-23T14:00:41.999Z</time></trkpt><trkpt lat="45.83386424468204" lon="12.104369119405506"><ele>120.66666666666666</ele><time>2026-03-23T14:00:42.999Z</time></trkpt><trkpt lat="45.83386772859872" lon="12.10426387338635"><ele>122.0</ele><time>2026-03-23T14:00:43.999Z</time></trkpt><trkpt lat="45.833853842877964" lon="12.104117759804987"><ele>121.0</ele><time>2026-03-23T14:00:44.999Z</time></trkpt><trkpt lat="45.83384961475668" lon="12.103971765444737"><ele>119.99999999999999</ele><time>2026-03-23T14:00:45.999Z</time></trkpt><trkpt lat="45.8338516369348" lon="12.103849815957933"><ele>118.99999999999999</ele><time>2026-03-23T14:00:46.999Z</time></trkpt><trkpt lat="45.833863786457364" lon="12.103724699425689"><ele>118.0</ele><time>2026-03-23T14:00:47.999Z</time></trkpt><trkpt lat="45.83386540114655" lon="12.103581858797105"><ele>117.0</ele><time>2026-03-23T14:00:48.999Z</time></trkpt><trkpt lat="45.83384848343433" lon="12.103430814922085"><ele>117.0</ele><time>2026-03-23T14:00:49.999Z</time></trkpt><trkpt lat="45.833824548294" lon="12.103264390392127"><ele>117.0</ele><time>2026-03-23T14:00:50.999Z</time></trkpt><trkpt lat="45.83379486056547" lon="12.103094132172851"><ele>117.0</ele><time>2026-03-23T14:00:51.999Z</time></trkpt><trkpt lat="45.83378225152909" lon="12.102922118742082"><ele>117.0</ele><time>2026-03-23T14:00:52.999Z</time></trkpt><trkpt lat="45.833771457385886" lon="12.102795716437855"><ele>116.33333333333333</ele><time>2026-03-23T14:00:53.999Z</time></trkpt><trkpt lat="45.83376242034775" lon="12.102616464929007"><ele>115.66666666666666</ele><time>2026-03-23T14:00:55.999Z</time></trkpt><trkpt lat="45.83374189986122" lon="12.102529563906176"><ele>115.0</ele><time>2026-03-23T14:00:56.999Z</time></trkpt><trkpt lat="45.83371817181145" lon="12.102427110934405"><ele>114.33333333333333</ele><time>2026-03-23T14:00:58.999Z</time></trkpt><trkpt lat="45.83367648093023" lon="12.102311982486187"><ele>113.66666666666666</ele><time>2026-03-23T14:01:30.999Z</time></trkpt><trkpt lat="45.83372318711574" lon="12.102391297010973"><ele>113.0</ele><time>2026-03-23T14:01:44.999Z</time></trkpt><trkpt lat="45.83375365253639" lon="12.102541517488186"><ele>113.0</ele><time>2026-03-23T14:01:46.999Z</time></trkpt><trkpt lat="45.83378003836026" lon="12.102705687343754"><ele>113.00000000000001</ele><time>2026-03-23T14:01:48.999Z</time></trkpt><trkpt lat="45.833734217469555" lon="12.102879021830251"><ele>113.00000000000001</ele><time>2026-03-23T14:01:50.999Z</time></trkpt><trkpt lat="45.83374237227848" lon="12.102968891132969"><ele>113.0</ele><time>2026-03-23T14:01:51.999Z</time></trkpt><trkpt lat="45.83378654420252" lon="12.103072038292824"><ele>113.0</ele><time>2026-03-23T14:01:52.999Z</time></trkpt><trkpt lat="45.833813946513466" lon="12.103212736365075"><ele>113.66666666666666</ele><time>2026-03-23T14:01:54.999Z</time></trkpt><trkpt lat="45.833837489711705" lon="12.103327418225692"><ele>114.33333333333333</ele><time>2026-03-23T14:01:56.999Z</time></trkpt><trkpt lat="45.83385401486327" lon="12.103427836244018"><ele>115.0</ele><time>2026-03-23T14:01:58.999Z</time></trkpt><trkpt lat="45.83388049049372" lon="12.10354684546427"><ele>115.66666666666666</ele><time>2026-03-23T14:02:00.999Z</time></trkpt><trkpt lat="45.83392309804992" lon="12.103651122694073"><ele>116.33333333333333</ele><time>2026-03-23T14:02:03.999Z</time></trkpt><trkpt lat="45.83392685715873" lon="12.103746022885238"><ele>117.0</ele><time>2026-03-23T14:02:07.999Z</time></trkpt><trkpt lat="45.83399329379526" lon="12.103736341179706"><ele>117.0</ele><time>2026-03-23T14:02:09.999Z</time></trkpt><trkpt lat="45.834057381748075" lon="12.103789846668812"><ele>117.00000000000001</ele><time>2026-03-23T14:02:17.999Z</time></trkpt><trkpt lat="45.834061561204095" lon="12.103883379541461"><ele>117.0</ele><time>2026-03-23T14:02:27.999Z</time></trkpt><trkpt lat="45.83402347264932" lon="12.10396349338677"><ele>117.0</ele><time>2026-03-23T14:02:30.999Z</time></trkpt><trkpt lat="45.83396114341508" lon="12.103984509523535"><ele>117.00000000000001</ele><time>2026-03-23T14:02:34.999Z</time></trkpt><trkpt lat="45.83390675804984" lon="12.103889481017681"><ele>117.0</ele><time>2026-03-23T14:03:23.999Z</time></trkpt><trkpt lat="45.83395441338563" lon="12.103821914641541"><ele>117.0</ele><time>2026-03-23T14:03:49.999Z</time></trkpt><trkpt lat="45.833890879003334" lon="12.103727607850994"><ele>117.0</ele><time>2026-03-23T14:04:14.999Z</time></trkpt><trkpt lat="45.833862424134786" lon="12.103589595088776"><ele>117.0</ele><time>2026-03-23T14:04:17.999Z</time></trkpt><trkpt lat="45.83385510311469" lon="12.103467086766317"><ele>117.0</ele><time>2026-03-23T14:04:19.999Z</time></trkpt><trkpt lat="45.83383284268841" lon="12.103349280927018"><ele>117.0</ele><time>2026-03-23T14:04:22.999Z</time></trkpt><trkpt lat="45.83382013640194" lon="12.10322946232456"><ele>117.0</ele><time>2026-03-23T14:04:24.999Z</time></trkpt><trkpt lat="45.83381065267047" lon="12.10313651698255"><ele>117.0</ele><time>2026-03-23T14:04:26.999Z</time></trkpt><trkpt lat="45.83384723895374" lon="12.103058191025653"><ele>116.33333333333333</ele><time>2026-03-23T14:04:41.999Z</time></trkpt><trkpt lat="45.83390408736091" lon="12.103013076815195"><ele>115.66666666666666</ele><time>2026-03-23T14:05:10Z</time></trkpt><trkpt lat="45.8340208029237" lon="12.103032224193395"><ele>115.0</ele><time>2026-03-23T14:05:18Z</time></trkpt><trkpt lat="45.83395099848344" lon="12.10300488684747"><ele>114.33333333333333</ele><time>2026-03-23T14:05:43Z</time></trkpt><trkpt lat="45.833875246108896" lon="12.103046326982545"><ele>113.66666666666666</ele><time>2026-03-23T14:05:56Z</time></trkpt><trkpt lat="45.83380056160588" lon="12.103076196850083"><ele>113.0</ele><time>2026-03-23T14:06:01Z</time></trkpt><trkpt lat="45.83380821013368" lon="12.103172267286105"><ele>113.80000000000001</ele><time>2026-03-23T14:06:07Z</time></trkpt><trkpt lat="45.83382928929942" lon="12.103317210948054"><ele>114.60000000000001</ele><time>2026-03-23T14:06:09Z</time></trkpt><trkpt lat="45.8338529901525" lon="12.103413655486849"><ele>115.39999999999999</ele><time>2026-03-23T14:06:10Z</time></trkpt><trkpt lat="45.833870275159676" lon="12.103522505801122"><ele>116.19999999999999</ele><time>2026-03-23T14:06:11Z</time></trkpt><trkpt lat="45.833880097525046" lon="12.103699507900437"><ele>117.0</ele><time>2026-03-23T14:06:13Z</time></trkpt><trkpt lat="45.833872306924455" lon="12.103887470601292"><ele>117.0</ele><time>2026-03-23T14:06:15Z</time></trkpt><trkpt lat="45.833868683681025" lon="12.103980703120698"><ele>117.0</ele><time>2026-03-23T14:06:16Z</time></trkpt><trkpt lat="45.83388072640084" lon="12.104161753851702"><ele>117.0</ele><time>2026-03-23T14:06:18Z</time></trkpt><trkpt lat="45.833892318542844" lon="12.104266664545376"><ele>117.0</ele><time>2026-03-23T14:06:19Z</time></trkpt><trkpt lat="45.83390482044242" lon="12.10437155955208"><ele>117.0</ele><time>2026-03-23T14:06:20Z</time></trkpt><trkpt lat="45.833924068000506" lon="12.104518517593249"><ele>117.0</ele><time>2026-03-23T14:06:22Z</time></trkpt><trkpt lat="45.83399831533402" lon="12.104652795722627"><ele>116.39999999999999</ele><time>2026-03-23T14:06:24Z</time></trkpt><trkpt lat="45.83406292472684" lon="12.104795194543707"><ele>115.79999999999998</ele><time>2026-03-23T14:06:26Z</time></trkpt><trkpt lat="45.8341299173315" lon="12.104898336202375"><ele>115.2</ele><time>2026-03-23T14:06:28Z</time></trkpt><trkpt lat="45.8342040649811" lon="12.104973628133546"><ele>114.6</ele><time>2026-03-23T14:06:30Z</time></trkpt><trkpt lat="45.834315464727105" lon="12.104993242246934"><ele>114.0</ele><time>2026-03-23T14:06:32Z</time></trkpt><trkpt lat="45.834429550571365" lon="12.104965456501835"><ele>114.0</ele><time>2026-03-23T14:06:34Z</time></trkpt><trkpt lat="45.834538725401" lon="12.104926639933316"><ele>114.0</ele><time>2026-03-23T14:06:36Z</time></trkpt><trkpt lat="45.83463744371582" lon="12.104883098267402"><ele>114.0</ele><time>2026-03-23T14:06:38Z</time></trkpt><trkpt lat="45.834708195763255" lon="12.104823583100215"><ele>114.0</ele><time>2026-03-23T14:06:40Z</time></trkpt><trkpt lat="45.83476518104218" lon="12.104731529487198"><ele>114.0</ele><time>2026-03-23T14:06:42Z</time></trkpt><trkpt lat="45.8347810306981" lon="12.104631258779934"><ele>114.0</ele><time>2026-03-23T14:06:44Z</time></trkpt><trkpt lat="45.83476274323128" lon="12.104534780110432"><ele>113.99999999999999</ele><time>2026-03-23T14:06:47Z</time></trkpt><trkpt lat="45.834695728707196" lon="12.104485922248742"><ele>114.0</ele><time>2026-03-23T14:06:49Z</time></trkpt><trkpt lat="45.83462442103792" lon="12.104463490034314"><ele>114.0</ele><time>2026-03-23T14:06:51Z</time></trkpt><trkpt lat="45.83455710682645" lon="12.104487122506747"><ele>113.99999999999999</ele><time>2026-03-23T14:06:53Z</time></trkpt><trkpt lat="45.834496491707355" lon="12.104530252980727"><ele>114.0</ele><time>2026-03-23T14:06:55Z</time></trkpt><trkpt lat="45.834437345840044" lon="12.104566518577505"><ele>114.0</ele><time>2026-03-23T14:06:56Z</time></trkpt><trkpt lat="45.83435951224274" lon="12.104626453889054"><ele>115.6</ele><time>2026-03-23T14:06:59Z</time></trkpt><trkpt lat="45.8343016748397" lon="12.104675947833229"><ele>117.2</ele><time>2026-03-23T14:07:00Z</time></trkpt><trkpt lat="45.83419908286262" lon="12.104775445245314"><ele>118.79999999999998</ele><time>2026-03-23T14:07:03Z</time></trkpt><trkpt lat="45.834158404471125" lon="12.10486505360035"><ele>120.39999999999999</ele><time>2026-03-23T14:07:05Z</time></trkpt><trkpt lat="45.83418323452896" lon="12.105026517603187"><ele>122.0</ele><time>2026-03-23T14:07:07Z</time></trkpt><trkpt lat="45.83421094204575" lon="12.105140958890658"><ele>121.99999999999999</ele><time>2026-03-23T14:07:08Z</time></trkpt><trkpt lat="45.83424401094699" lon="12.105286446286419"><ele>122.0</ele><time>2026-03-23T14:07:10Z</time></trkpt><trkpt lat="45.83426083856686" lon="12.105389082703056"><ele>122.0</ele><time>2026-03-23T14:07:11Z</time></trkpt><trkpt lat="45.83427795826195" lon="12.105512513774034"><ele>122.0</ele><time>2026-03-23T14:07:12Z</time></trkpt><trkpt lat="45.83429809097862" lon="12.10561952687668"><ele>121.99999999999999</ele><time>2026-03-23T14:07:13Z</time></trkpt><trkpt lat="45.83431099900799" lon="12.105746978924738"><ele>122.0</ele><time>2026-03-23T14:07:14Z</time></trkpt><trkpt lat="45.83432692136685" lon="12.105848880689866"><ele>120.0</ele><time>2026-03-23T14:07:15Z</time></trkpt><trkpt lat="45.834340182130056" lon="12.105998190286535"><ele>117.99999999999999</ele><time>2026-03-23T14:07:17Z</time></trkpt><trkpt lat="45.83438059235885" lon="12.106127686968003"><ele>115.99999999999999</ele><time>2026-03-23T14:07:19Z</time></trkpt><trkpt lat="45.83448567407972" lon="12.106178801479585"><ele>114.0</ele><time>2026-03-23T14:07:21Z</time></trkpt><trkpt lat="45.834559219808554" lon="12.106171955445905"><ele>112.0</ele><time>2026-03-23T14:07:22Z</time></trkpt><trkpt lat="45.83463208120728" lon="12.10616048717988"><ele>112.0</ele><time>2026-03-23T14:07:23Z</time></trkpt><trkpt lat="45.83473715798345" lon="12.106132131091462"><ele>111.99999999999999</ele><time>2026-03-23T14:07:25Z</time></trkpt><trkpt lat="45.83485270396763" lon="12.106116677118278"><ele>111.99999999999999</ele><time>2026-03-23T14:07:27Z</time></trkpt><trkpt lat="45.83494755301156" lon="12.106041454550766"><ele>112.0</ele><time>2026-03-23T14:07:29Z</time></trkpt><trkpt lat="45.834995119886685" lon="12.105959236866005"><ele>112.0</ele><time>2026-03-23T14:07:31Z</time></trkpt><trkpt lat="45.83497685456234" lon="12.105861359248678"><ele>112.00000000000001</ele><time>2026-03-23T14:07:33Z</time></trkpt><trkpt lat="45.834921858887554" lon="12.105745456484659"><ele>112.0</ele><time>2026-03-23T14:07:35Z</time></trkpt><trkpt lat="45.83489287065505" lon="12.105664754722982"><ele>112.0</ele><time>2026-03-23T14:07:37Z</time></trkpt><trkpt lat="45.83485562694143" lon="12.105541643104958"><ele>112.0</ele><time>2026-03-23T14:07:39Z</time></trkpt><trkpt lat="45.83481287441911" lon="12.10541934753989"><ele>112.00000000000001</ele><time>2026-03-23T14:07:42Z</time></trkpt><trkpt lat="45.83477447848483" lon="12.105322902365906"><ele>112.0</ele><time>2026-03-23T14:07:43Z</time></trkpt><trkpt lat="45.8347392847957" lon="12.105237176814388"><ele>112.39999999999999</ele><time>2026-03-23T14:07:46Z</time></trkpt><trkpt lat="45.83466917582485" lon="12.10507740926774"><ele>112.79999999999998</ele><time>2026-03-23T14:07:48Z</time></trkpt><trkpt lat="45.83462095831747" lon="12.10494246100812"><ele>113.2</ele><time>2026-03-23T14:07:51Z</time></trkpt><trkpt lat="45.83458684490773" lon="12.104850690851682"><ele>113.6</ele><time>2026-03-23T14:07:52Z</time></trkpt><trkpt lat="45.83455099563673" lon="12.104730464606163"><ele>114.0</ele><time>2026-03-23T14:07:55Z</time></trkpt><trkpt lat="45.83452726969997" lon="12.104633762164418"><ele>114.0</ele><time>2026-03-23T14:07:57Z</time></trkpt><trkpt lat="45.83448067771449" lon="12.104522706988913"><ele>114.0</ele><time>2026-03-23T14:07:59Z</time></trkpt><trkpt lat="45.83440774045626" lon="12.104581588436371"><ele>114.0</ele><time>2026-03-23T14:08:02Z</time></trkpt><trkpt lat="45.83427692079892" lon="12.104683930857478"><ele>114.0</ele><time>2026-03-23T14:08:04Z</time></trkpt><trkpt lat="45.83420573115641" lon="12.10475641521448"><ele>114.0</ele><time>2026-03-23T14:08:06Z</time></trkpt><trkpt lat="45.83409159458696" lon="12.104860455791938"><ele>115.33333333333333</ele><time>2026-03-23T14:08:08Z</time></trkpt><trkpt lat="45.83402384714223" lon="12.104911491164756"><ele>116.66666666666666</ele><time>2026-03-23T14:08:09Z</time></trkpt><trkpt lat="45.83394611352346" lon="12.10498085761982"><ele>118.0</ele><time>2026-03-23T14:08:10Z</time></trkpt><trkpt lat="45.83388347773299" lon="12.105040485638803"><ele>119.33333333333333</ele><time>2026-03-23T14:08:11Z</time></trkpt><trkpt lat="45.8338477384397" lon="12.105162998979736"><ele>120.66666666666666</ele><time>2026-03-23T14:08:13Z</time></trkpt><trkpt lat="45.833865990118895" lon="12.105253584050555"><ele>122.0</ele><time>2026-03-23T14:08:14Z</time></trkpt><trkpt lat="45.83388797829057" lon="12.105339297640942"><ele>122.0</ele><time>2026-03-23T14:08:15Z</time></trkpt><trkpt lat="45.833861217328526" lon="12.105511556963695"><ele>121.99999999999999</ele><time>2026-03-23T14:08:17Z</time></trkpt><trkpt lat="45.8338619934713" lon="12.105648823928066"><ele>121.99999999999999</ele><time>2026-03-23T14:08:19Z</time></trkpt><trkpt lat="45.83387563522401" lon="12.105742366934766"><ele>122.0</ele><time>2026-03-23T14:08:21Z</time></trkpt><trkpt lat="45.83381011321081" lon="12.10585449791377"><ele>122.0</ele><time>2026-03-23T14:08:24Z</time></trkpt><trkpt lat="45.833771100919684" lon="12.105929856256559"><ele>122.16666666666666</ele><time>2026-03-23T14:08:25Z</time></trkpt><trkpt lat="45.833739516393635" lon="12.106086711127794"><ele>122.33333333333333</ele><time>2026-03-23T14:08:27Z</time></trkpt><trkpt lat="45.8337393809561" lon="12.106194939280108"><ele>122.5</ele><time>2026-03-23T14:08:29Z</time></trkpt><trkpt lat="45.83367364982328" lon="12.106219898628014"><ele>122.66666666666666</ele><time>2026-03-23T14:08:31Z</time></trkpt><trkpt lat="45.833733917546" lon="12.106170144607407"><ele>122.83333333333333</ele><time>2026-03-23T14:08:44Z</time></trkpt><trkpt lat="45.833755436207575" lon="12.106007639353802"><ele>123.0</ele><time>2026-03-23T14:08:46Z</time></trkpt><trkpt lat="45.83379692151687" lon="12.10588983718388"><ele>123.0</ele><time>2026-03-23T14:08:48Z</time></trkpt><trkpt lat="45.833872018213796" lon="12.105754944162557"><ele>123.0</ele><time>2026-03-23T14:08:50Z</time></trkpt><trkpt lat="45.83388097744813" lon="12.105577727802254"><ele>123.0</ele><time>2026-03-23T14:08:52Z</time></trkpt><trkpt lat="45.83387017782353" lon="12.105394800934894"><ele>123.0</ele><time>2026-03-23T14:08:54Z</time></trkpt><trkpt lat="45.83388939314444" lon="12.105223017007923"><ele>122.75</ele><time>2026-03-23T14:08:56Z</time></trkpt><trkpt lat="45.833888019633875" lon="12.105131856861759"><ele>122.5</ele><time>2026-03-23T14:08:57Z</time></trkpt><trkpt lat="45.83395971036041" lon="12.104986240914503"><ele>122.25</ele><time>2026-03-23T14:09:00Z</time></trkpt><trkpt lat="45.83409859771387" lon="12.104874759071457"><ele>122.0</ele><time>2026-03-23T14:09:02Z</time></trkpt><trkpt lat="45.83418644044298" lon="12.10479153270339"><ele>121.99999999999999</ele><time>2026-03-23T14:09:03Z</time></trkpt><trkpt lat="45.83427592153832" lon="12.104721424956153"><ele>122.0</ele><time>2026-03-23T14:09:04Z</time></trkpt><trkpt lat="45.83436372922931" lon="12.104645281053362"><ele>122.0</ele><time>2026-03-23T14:09:05Z</time></trkpt><trkpt lat="45.83442929098203" lon="12.104582329973175"><ele>122.0</ele><time>2026-03-23T14:09:06Z</time></trkpt><trkpt lat="45.83449293856633" lon="12.104527585805167"><ele>121.99999999999999</ele><time>2026-03-23T14:09:07Z</time></trkpt><trkpt lat="45.8345476655957" lon="12.104482216467437"><ele>122.0</ele><time>2026-03-23T14:09:08Z</time></trkpt><trkpt lat="45.834613087877386" lon="12.104458635061766"><ele>120.66666666666666</ele><time>2026-03-23T14:09:09Z</time></trkpt><trkpt lat="45.834735869102744" lon="12.10451956331304"><ele>119.33333333333333</ele><time>2026-03-23T14:09:11Z</time></trkpt><trkpt lat="45.834788046966544" lon="12.104585824039383"><ele>118.0</ele><time>2026-03-23T14:09:12Z</time></trkpt><trkpt lat="45.83481634845925" lon="12.104674401408019"><ele>116.66666666666666</ele><time>2026-03-23T14:09:13Z</time></trkpt><trkpt lat="45.83482175707597" lon="12.104773904703386"><ele>115.33333333333333</ele><time>2026-03-23T14:09:14Z</time></trkpt><trkpt lat="45.83484934857353" lon="12.104872516422018"><ele>114.0</ele><time>2026-03-23T14:09:15Z</time></trkpt><trkpt lat="45.83488609605282" lon="12.10497581038771"><ele>114.0</ele><time>2026-03-23T14:09:16Z</time></trkpt><trkpt lat="45.834904168289626" lon="12.105079993568278"><ele>114.0</ele><time>2026-03-23T14:09:17Z</time></trkpt><trkpt lat="45.83493226180274" lon="12.105222931807743"><ele>114.0</ele><time>2026-03-23T14:09:18Z</time></trkpt><trkpt lat="45.83496444349779" lon="12.105357590035373"><ele>114.0</ele><time>2026-03-23T14:09:19Z</time></trkpt><trkpt lat="45.83501423867034" lon="12.10554647923285"><ele>114.0</ele><time>2026-03-23T14:09:20Z</time></trkpt><trkpt lat="45.83507613950256" lon="12.1057625866016"><ele>113.6</ele><time>2026-03-23T14:09:21Z</time></trkpt><trkpt lat="45.835128271694984" lon="12.105955938288082"><ele>113.2</ele><time>2026-03-23T14:09:22Z</time></trkpt><trkpt lat="45.83515810318203" lon="12.106100707467622"><ele>112.79999999999998</ele><time>2026-03-23T14:09:23Z</time></trkpt><trkpt lat="45.83519143488482" lon="12.106242998856033"><ele>112.39999999999999</ele><time>2026-03-23T14:09:24Z</time></trkpt><trkpt lat="45.83521788431017" lon="12.106365961538684"><ele>112.0</ele><time>2026-03-23T14:09:25Z</time></trkpt><trkpt lat="45.83524381010791" lon="12.106477111141805"><ele>111.83333333333334</ele><time>2026-03-23T14:09:26Z</time></trkpt><trkpt lat="45.83525327886548" lon="12.106576155486694"><ele>111.66666666666667</ele><time>2026-03-23T14:09:27Z</time></trkpt><trkpt lat="45.83525152024106" lon="12.106696908168495"><ele>111.5</ele><time>2026-03-23T14:09:28Z</time></trkpt><trkpt lat="45.83525272690872" lon="12.106794677383805"><ele>111.33333333333334</ele><time>2026-03-23T14:09:29Z</time></trkpt><trkpt lat="45.8352964839352" lon="12.106917269184773"><ele>111.16666666666667</ele><time>2026-03-23T14:09:31Z</time></trkpt><trkpt lat="45.83533127014049" lon="12.107096842113938"><ele>111.0</ele><time>2026-03-23T14:09:33Z</time></trkpt><trkpt lat="45.835353610681395" lon="12.107237521724567"><ele>111.0</ele><time>2026-03-23T14:09:34Z</time></trkpt><trkpt lat="45.835367961035544" lon="12.107398761145694"><ele>111.0</ele><time>2026-03-23T14:09:35Z</time></trkpt><trkpt lat="45.835378625964594" lon="12.107507456479144"><ele>111.0</ele><time>2026-03-23T14:09:36Z</time></trkpt><trkpt lat="45.83542524796382" lon="12.107633466422792"><ele>111.0</ele><time>2026-03-23T14:09:37Z</time></trkpt><trkpt lat="45.835469159818636" lon="12.107761714157121"><ele>111.0</ele><time>2026-03-23T14:09:38Z</time></trkpt><trkpt lat="45.83549886436233" lon="12.10790307525549"><ele>111.0</ele><time>2026-03-23T14:09:39Z</time></trkpt><trkpt lat="45.83551354998753" lon="12.108059033312955"><ele>111.0</ele><time>2026-03-23T14:09:40Z</time></trkpt><trkpt lat="45.83552231251309" lon="12.108221151031763"><ele>111.0</ele><time>2026-03-23T14:09:41Z</time></trkpt><trkpt lat="45.83553434693369" lon="12.108401893227155"><ele>111.0</ele><time>2026-03-23T14:09:42Z</time></trkpt><trkpt lat="45.83554326325053" lon="12.108564959183829"><ele>111.25</ele><time>2026-03-23T14:09:43Z</time></trkpt><trkpt lat="45.83555899318097" lon="12.108733374894417"><ele>111.5</ele><time>2026-03-23T14:09:44Z</time></trkpt><trkpt lat="45.835585819554666" lon="12.108911221694266"><ele>111.75</ele><time>2026-03-23T14:09:45Z</time></trkpt><trkpt lat="45.835616186474816" lon="12.109110575386802"><ele>112.0</ele><time>2026-03-23T14:09:46Z</time></trkpt><trkpt lat="45.83564590680575" lon="12.109310562288531"><ele>112.25</ele><time>2026-03-23T14:09:47Z</time></trkpt><trkpt lat="45.83566586119406" lon="12.109510135466017"><ele>112.5</ele><time>2026-03-23T14:09:48Z</time></trkpt><trkpt lat="45.835696068989975" lon="12.109701759742803"><ele>112.75</ele><time>2026-03-23T14:09:49Z</time></trkpt><trkpt lat="45.83572094948467" lon="12.109880565743474"><ele>113.0</ele><time>2026-03-23T14:09:50Z</time></trkpt><trkpt lat="45.83575028059975" lon="12.110058355278223"><ele>114.0</ele><time>2026-03-23T14:09:51Z</time></trkpt><trkpt lat="45.83577772939651" lon="12.110247689312569"><ele>115.0</ele><time>2026-03-23T14:09:52Z</time></trkpt><trkpt lat="45.8357941436091" lon="12.11044554583739"><ele>116.0</ele><time>2026-03-23T14:09:53Z</time></trkpt><trkpt lat="45.83579336578848" lon="12.110644626486204"><ele>117.0</ele><time>2026-03-23T14:09:54Z</time></trkpt><trkpt lat="45.83578208820232" lon="12.110844063623107"><ele>117.75</ele><time>2026-03-23T14:09:55Z</time></trkpt><trkpt lat="45.835771062462335" lon="12.111033915058078"><ele>118.5</ele><time>2026-03-23T14:09:56Z</time></trkpt><trkpt lat="45.8357669190789" lon="12.111215086421366"><ele>119.25</ele><time>2026-03-23T14:09:57Z</time></trkpt><trkpt lat="45.83575791154275" lon="12.111381516823236"><ele>120.0</ele><time>2026-03-23T14:09:58Z</time></trkpt><trkpt lat="45.83572533074707" lon="12.111550400646788"><ele>119.8</ele><time>2026-03-23T14:09:59Z</time></trkpt><trkpt lat="45.83569890372913" lon="12.111705836449158"><ele>119.6</ele><time>2026-03-23T14:10:00Z</time></trkpt><trkpt lat="45.835679670447355" lon="12.111818914568378"><ele>119.4</ele><time>2026-03-23T14:10:01Z</time></trkpt><trkpt lat="45.83566273226427" lon="12.111942918115385"><ele>119.2</ele><time>2026-03-23T14:10:03Z</time></trkpt><trkpt lat="45.835737394061155" lon="12.112047876399421"><ele>119.0</ele><time>2026-03-23T14:10:05Z</time></trkpt><trkpt lat="45.8357877960751" lon="12.112151612541707"><ele>118.99999999999999</ele><time>2026-03-23T14:10:07Z</time></trkpt><trkpt lat="45.83577186423508" lon="12.112255411749139"><ele>119.0</ele><time>2026-03-23T14:10:09Z</time></trkpt><trkpt lat="45.83576798743912" lon="12.11238238737452"><ele>119.0</ele><time>2026-03-23T14:10:11Z</time></trkpt><trkpt lat="45.8357452187959" lon="12.112477325713286"><ele>119.0</ele><time>2026-03-23T14:10:12Z</time></trkpt><trkpt lat="45.835722330564806" lon="12.112562410473274"><ele>118.99999999999999</ele><time>2026-03-23T14:10:14Z</time></trkpt><trkpt lat="45.835718144314704" lon="12.11269153014465"><ele>119.0</ele><time>2026-03-23T14:10:17Z</time></trkpt><trkpt lat="45.83572862413022" lon="12.11278751591293"><ele>118.83333333333333</ele><time>2026-03-23T14:10:19Z</time></trkpt><trkpt lat="45.835738983810636" lon="12.112882838564648"><ele>118.66666666666666</ele><time>2026-03-23T14:10:22Z</time></trkpt><trkpt lat="45.83574931404563" lon="12.112987879852476"><ele>118.5</ele><time>2026-03-23T14:10:24Z</time></trkpt><trkpt lat="45.83575706356621" lon="12.113107054988117"><ele>118.33333333333334</ele><time>2026-03-23T14:10:26Z</time></trkpt><trkpt lat="45.83579528655542" lon="12.113221146020246"><ele>118.16666666666667</ele><time>2026-03-23T14:10:27Z</time></trkpt><trkpt lat="45.8358573071965" lon="12.113255636789988"><ele>118.0</ele><time>2026-03-23T14:10:31Z</time></trkpt><trkpt lat="45.83588284007791" lon="12.113355619574712"><ele>118.0</ele><time>2026-03-23T14:10:32Z</time></trkpt><trkpt lat="45.83589083365506" lon="12.113477099334753"><ele>118.00000000000001</ele><time>2026-03-23T14:10:34Z</time></trkpt><trkpt lat="45.835838225424304" lon="12.113573097240275"><ele>118.00000000000001</ele><time>2026-03-23T14:10:36Z</time></trkpt><trkpt lat="45.83582399213698" lon="12.113697148282023"><ele>118.0</ele><time>2026-03-23T14:10:40Z</time></trkpt><trkpt lat="45.83584670508782" lon="12.113805934280894"><ele>118.0</ele><time>2026-03-23T14:10:43Z</time></trkpt><trkpt lat="45.83602375223158" lon="12.113827172092753"><ele>117.80000000000001</ele><time>2026-03-23T14:11:11Z</time></trkpt><trkpt lat="45.83606531922937" lon="12.114058186964565"><ele>117.60000000000001</ele><time>2026-03-23T14:11:14Z</time></trkpt><trkpt lat="45.83608424530045" lon="12.11416950243781"><ele>117.39999999999999</ele><time>2026-03-23T14:11:15Z</time></trkpt><trkpt lat="45.83614455036966" lon="12.114327186364982"><ele>117.19999999999999</ele><time>2026-03-23T14:11:17Z</time></trkpt><trkpt lat="45.83617895710643" lon="12.114415149940886"><ele>117.0</ele><time>2026-03-23T14:11:18Z</time></trkpt><trkpt lat="45.83621898127963" lon="12.114508155629093"><ele>116.8</ele><time>2026-03-23T14:11:19Z</time></trkpt><trkpt lat="45.83629646078419" lon="12.114655968565726"><ele>116.6</ele><time>2026-03-23T14:11:21Z</time></trkpt><trkpt lat="45.83632560806607" lon="12.11478658901553"><ele>116.39999999999999</ele><time>2026-03-23T14:11:23Z</time></trkpt><trkpt lat="45.83624495349616" lon="12.114872934069712"><ele>116.19999999999999</ele><time>2026-03-23T14:11:25Z</time></trkpt><trkpt lat="45.836259444873136" lon="12.115020971789832"><ele>116.0</ele><time>2026-03-23T14:11:28Z</time></trkpt><trkpt lat="45.83624227407094" lon="12.115190239821514"><ele>116.0</ele><time>2026-03-23T14:11:30Z</time></trkpt><trkpt lat="45.83626031129602" lon="12.115278450635298"><ele>116.0</ele><time>2026-03-23T14:11:33Z</time></trkpt><trkpt lat="45.8363386052961" lon="12.115278519755606"><ele>116.0</ele><time>2026-03-23T14:11:51Z</time></trkpt><trkpt lat="45.83641663591465" lon="12.115410171752325"><ele>116.0</ele><time>2026-03-23T14:11:53Z</time></trkpt><trkpt lat="45.83648085484162" lon="12.115449670921027"><ele>116.0</ele><time>2026-03-23T14:11:54Z</time></trkpt><trkpt lat="45.83657547818173" lon="12.11559285429284"><ele>115.99999999999999</ele><time>2026-03-23T14:11:56Z</time></trkpt><trkpt lat="45.83657481250056" lon="12.115704367878465"><ele>116.0</ele><time>2026-03-23T14:11:57Z</time></trkpt><trkpt lat="45.83657573778044" lon="12.115822703819095"><ele>116.0</ele><time>2026-03-23T14:11:58Z</time></trkpt><trkpt lat="45.8365914016351" lon="12.115944480526753"><ele>116.0</ele><time>2026-03-23T14:11:59Z</time></trkpt><trkpt lat="45.836606483261356" lon="12.116056354872377"><ele>115.99999999999999</ele><time>2026-03-23T14:12:00Z</time></trkpt><trkpt lat="45.836646661687354" lon="12.116159812063314"><ele>116.0</ele><time>2026-03-23T14:12:01Z</time></trkpt><trkpt lat="45.83670020857835" lon="12.116245838009922"><ele>116.33333333333333</ele><time>2026-03-23T14:12:02Z</time></trkpt><trkpt lat="45.836756556622" lon="12.116348344725038"><ele>116.66666666666666</ele><time>2026-03-23T14:12:03Z</time></trkpt><trkpt lat="45.83681520181612" lon="12.116454825110145"><ele>117.0</ele><time>2026-03-23T14:12:04Z</time></trkpt><trkpt lat="45.83684702316148" lon="12.116551718451502"><ele>117.33333333333334</ele><time>2026-03-23T14:12:05Z</time></trkpt><trkpt lat="45.83686012035156" lon="12.116655707112008"><ele>117.66666666666667</ele><time>2026-03-23T14:12:06Z</time></trkpt><trkpt lat="45.83685724322438" lon="12.116781183039786"><ele>118.0</ele><time>2026-03-23T14:12:07Z</time></trkpt><trkpt lat="45.83686113457465" lon="12.116894031896244"><ele>116.83333333333334</ele><time>2026-03-23T14:12:08Z</time></trkpt><trkpt lat="45.83685185066375" lon="12.11698405837889"><ele>115.66666666666667</ele><time>2026-03-23T14:12:09Z</time></trkpt><trkpt lat="45.83690787195682" lon="12.117164522031057"><ele>114.5</ele><time>2026-03-23T14:12:11Z</time></trkpt><trkpt lat="45.836946663481626" lon="12.117276421956754"><ele>113.33333333333334</ele><time>2026-03-23T14:12:12Z</time></trkpt><trkpt lat="45.83697541686326" lon="12.1173796751945"><ele>112.16666666666667</ele><time>2026-03-23T14:12:13Z</time></trkpt><trkpt lat="45.83698944713156" lon="12.117491030159842"><ele>111.0</ele><time>2026-03-23T14:12:14Z</time></trkpt><trkpt lat="45.836994876520386" lon="12.117612862766377"><ele>110.75</ele><time>2026-03-23T14:12:15Z</time></trkpt><trkpt lat="45.836988060957395" lon="12.117737666347821"><ele>110.5</ele><time>2026-03-23T14:12:16Z</time></trkpt><trkpt lat="45.836986015050186" lon="12.117907956458616"><ele>110.25</ele><time>2026-03-23T14:12:17Z</time></trkpt><trkpt lat="45.8370060532503" lon="12.118106185073833"><ele>110.0</ele><time>2026-03-23T14:12:18Z</time></trkpt><trkpt lat="45.837028643686644" lon="12.118318483316886"><ele>110.0</ele><time>2026-03-23T14:12:19Z</time></trkpt><trkpt lat="45.83704078025042" lon="12.118497317247728"><ele>110.0</ele><time>2026-03-23T14:12:20Z</time></trkpt><trkpt lat="45.83705923350448" lon="12.118700823138699"><ele>110.0</ele><time>2026-03-23T14:12:21Z</time></trkpt><trkpt lat="45.83706755060087" lon="12.118950970101634"><ele>110.0</ele><time>2026-03-23T14:12:22Z</time></trkpt><trkpt lat="45.83707314766447" lon="12.119171810945623"><ele>110.0</ele><time>2026-03-23T14:12:23Z</time></trkpt><trkpt lat="45.83707444978948" lon="12.119314611337314"><ele>110.0</ele><time>2026-03-23T14:12:24Z</time></trkpt><trkpt lat="45.8370807670663" lon="12.11943168799992"><ele>110.0</ele><time>2026-03-23T14:12:25Z</time></trkpt><trkpt lat="45.8370661417926" lon="12.119584434822922"><ele>110.0</ele><time>2026-03-23T14:12:27Z</time></trkpt><trkpt lat="45.83710505536695" lon="12.119708330828615"><ele>110.0</ele><time>2026-03-23T14:12:30Z</time></trkpt><trkpt lat="45.83720791651186" lon="12.119770639261827"><ele>109.99999999999999</ele><time>2026-03-23T14:12:33Z</time></trkpt><trkpt lat="45.837280369700835" lon="12.119820808518845"><ele>110.0</ele><time>2026-03-23T14:12:35Z</time></trkpt><trkpt lat="45.83734020292475" lon="12.11989136969613"><ele>110.0</ele><time>2026-03-23T14:12:38Z</time></trkpt><trkpt lat="45.83738370351322" lon="12.119960355291306"><ele>110.0</ele><time>2026-03-23T14:12:41Z</time></trkpt><trkpt lat="45.837344306891985" lon="12.12005529635069"><ele>110.0</ele><time>2026-03-23T14:12:44Z</time></trkpt><trkpt lat="45.83728610676391" lon="12.120100493362486"><ele>109.99999999999999</ele><time>2026-03-23T14:12:47Z</time></trkpt><trkpt lat="45.8372906719312" lon="12.120191187593813"><ele>110.0</ele><time>2026-03-23T14:12:51Z</time></trkpt><trkpt lat="45.83732256928052" lon="12.120318123011254"><ele>110.66666666666666</ele><time>2026-03-23T14:12:54Z</time></trkpt><trkpt lat="45.83732090966672" lon="12.120444229539062"><ele>111.33333333333333</ele><time>2026-03-23T14:12:57Z</time></trkpt><trkpt lat="45.837343685463026" lon="12.120559362611946"><ele>112.0</ele><time>2026-03-23T14:12:59Z</time></trkpt><trkpt lat="45.83735302024469" lon="12.1206788298336"><ele>112.66666666666666</ele><time>2026-03-23T14:13:02Z</time></trkpt><trkpt lat="45.837376554097794" lon="12.120766974061585"><ele>113.33333333333333</ele><time>2026-03-23T14:13:04Z</time></trkpt><trkpt lat="45.83738297995825" lon="12.120888057901679"><ele>114.0</ele><time>2026-03-23T14:13:06Z</time></trkpt><trkpt lat="45.837405906847806" lon="12.120997598731542"><ele>114.33333333333333</ele><time>2026-03-23T14:13:08Z</time></trkpt><trkpt lat="45.837435079329715" lon="12.121115750530622"><ele>114.66666666666666</ele><time>2026-03-23T14:13:10Z</time></trkpt><trkpt lat="45.83747079269861" lon="12.1212327158981"><ele>115.0</ele><time>2026-03-23T14:13:12Z</time></trkpt><trkpt lat="45.83749613443341" lon="12.121363219568817"><ele>115.33333333333333</ele><time>2026-03-23T14:13:14Z</time></trkpt><trkpt lat="45.83749251279219" lon="12.121477926422928"><ele>115.66666666666666</ele><time>2026-03-23T14:13:16Z</time></trkpt><trkpt lat="45.83753626930569" lon="12.12158928001964"><ele>116.0</ele><time>2026-03-23T14:13:18Z</time></trkpt><trkpt lat="45.83756615961422" lon="12.121718394021459"><ele>115.49999999999999</ele><time>2026-03-23T14:13:20Z</time></trkpt><trkpt lat="45.83759914935419" lon="12.121811674714683"><ele>115.0</ele><time>2026-03-23T14:13:22Z</time></trkpt><trkpt lat="45.83764241806947" lon="12.12193227880945"><ele>114.5</ele><time>2026-03-23T14:13:25Z</time></trkpt><trkpt lat="45.837656534504085" lon="12.122031687078666"><ele>114.0</ele><time>2026-03-23T14:13:28Z</time></trkpt><trkpt lat="45.83769920903846" lon="12.122171322547045"><ele>113.49999999999999</ele><time>2026-03-23T14:13:30Z</time></trkpt><trkpt lat="45.83770379153352" lon="12.122294110059498"><ele>113.0</ele><time>2026-03-23T14:13:32Z</time></trkpt><trkpt lat="45.8377230583766" lon="12.122392607276236"><ele>113.33333333333333</ele><time>2026-03-23T14:13:33Z</time></trkpt><trkpt lat="45.83773550244995" lon="12.122511137486505"><ele>113.66666666666666</ele><time>2026-03-23T14:13:35Z</time></trkpt><trkpt lat="45.83776094469293" lon="12.12265050057567"><ele>114.0</ele><time>2026-03-23T14:13:37Z</time></trkpt><trkpt lat="45.837782461207546" lon="12.122754844563326"><ele>114.33333333333334</ele><time>2026-03-23T14:13:39Z</time></trkpt><trkpt lat="45.83779183526307" lon="12.122910030492793"><ele>114.66666666666667</ele><time>2026-03-23T14:13:41Z</time></trkpt><trkpt lat="45.83780871742221" lon="12.122997909532224"><ele>115.0</ele><time>2026-03-23T14:13:42Z</time></trkpt><trkpt lat="45.83783845638598" lon="12.12309352926219"><ele>115.00000000000001</ele><time>2026-03-23T14:13:43Z</time></trkpt><trkpt lat="45.837873000503336" lon="12.123199717771511"><ele>115.0</ele><time>2026-03-23T14:13:44Z</time></trkpt><trkpt lat="45.83790908812622" lon="12.12330659962144"><ele>115.0</ele><time>2026-03-23T14:13:45Z</time></trkpt><trkpt lat="45.837948351920986" lon="12.12344023620433"><ele>115.0</ele><time>2026-03-23T14:13:46Z</time></trkpt><trkpt lat="45.837970061274994" lon="12.123534841099824"><ele>115.00000000000001</ele><time>2026-03-23T14:13:47Z</time></trkpt><trkpt lat="45.838000070111555" lon="12.123661782604668"><ele>115.0</ele><time>2026-03-23T14:13:48Z</time></trkpt><trkpt lat="45.83802158190503" lon="12.123787301190205"><ele>114.83333333333334</ele><time>2026-03-23T14:13:49Z</time></trkpt><trkpt lat="45.83805477598364" lon="12.123893359620757"><ele>114.66666666666667</ele><time>2026-03-23T14:13:50Z</time></trkpt><trkpt lat="45.838082853032624" lon="12.124005017642617"><ele>114.5</ele><time>2026-03-23T14:13:51Z</time></trkpt><trkpt lat="45.83811998662315" lon="12.124132772415757"><ele>114.33333333333334</ele><time>2026-03-23T14:13:52Z</time></trkpt><trkpt lat="45.838157065479976" lon="12.124251428503577"><ele>114.16666666666667</ele><time>2026-03-23T14:13:53Z</time></trkpt><trkpt lat="45.838182604352234" lon="12.124340499134806"><ele>114.0</ele><time>2026-03-23T14:13:54Z</time></trkpt><trkpt lat="45.83824954047175" lon="12.124490789312507"><ele>114.0</ele><time>2026-03-23T14:13:56Z</time></trkpt><trkpt lat="45.8383034458681" lon="12.124616531498898"><ele>114.0</ele><time>2026-03-23T14:13:58Z</time></trkpt><trkpt lat="45.83838848719969" lon="12.124631176149808"><ele>114.0</ele><time>2026-03-23T14:14:00Z</time></trkpt><trkpt lat="45.83845946396432" lon="12.124626834623628"><ele>114.0</ele><time>2026-03-23T14:14:01Z</time></trkpt><trkpt lat="45.83853142154841" lon="12.124647589847175"><ele>114.0</ele><time>2026-03-23T14:14:02Z</time></trkpt><trkpt lat="45.83859193148682" lon="12.124708001563599"><ele>114.0</ele><time>2026-03-23T14:14:03Z</time></trkpt><trkpt lat="45.838652395569405" lon="12.124762400235118"><ele>113.5</ele><time>2026-03-23T14:14:04Z</time></trkpt><trkpt lat="45.83874193426791" lon="12.124856459697941"><ele>113.0</ele><time>2026-03-23T14:14:06Z</time></trkpt><trkpt lat="45.83880947778105" lon="12.124833529209381"><ele>112.5</ele><time>2026-03-23T14:14:07Z</time></trkpt><trkpt lat="45.83889527564495" lon="12.124784942091246"><ele>112.0</ele><time>2026-03-23T14:14:08Z</time></trkpt><trkpt lat="45.83896622476404" lon="12.124752943020606"><ele>111.5</ele><time>2026-03-23T14:14:09Z</time></trkpt><trkpt lat="45.8390304173042" lon="12.124729482284648"><ele>111.0</ele><time>2026-03-23T14:14:10Z</time></trkpt><trkpt lat="45.83906380366981" lon="12.124651327636537"><ele>111.0</ele><time>2026-03-23T14:14:13Z</time></trkpt><trkpt lat="45.83901191510402" lon="12.12449109240432"><ele>111.0</ele><time>2026-03-23T14:14:15Z</time></trkpt><trkpt lat="45.83898770377583" lon="12.124399640186523"><ele>111.0</ele><time>2026-03-23T14:14:16Z</time></trkpt><trkpt lat="45.839044553749616" lon="12.12431768178104"><ele>111.0</ele><time>2026-03-23T14:14:19Z</time></trkpt><trkpt lat="45.83913440456786" lon="12.124434980321952"><ele>111.0</ele><time>2026-03-23T14:14:21Z</time></trkpt><trkpt lat="45.839187578074714" lon="12.12451636341883"><ele>111.0</ele><time>2026-03-23T14:14:22Z</time></trkpt><trkpt lat="45.83924654916599" lon="12.124576216007398"><ele>111.0</ele><time>2026-03-23T14:14:23Z</time></trkpt><trkpt lat="45.839305475316074" lon="12.124638966906877"><ele>111.0</ele><time>2026-03-23T14:14:24Z</time></trkpt><trkpt lat="45.83937094446008" lon="12.124698185479824"><ele>111.0</ele><time>2026-03-23T14:14:25Z</time></trkpt><trkpt lat="45.83944852122804" lon="12.124764982949653"><ele>111.0</ele><time>2026-03-23T14:14:26Z</time></trkpt><trkpt lat="45.839535020192834" lon="12.124821742400215"><ele>111.0</ele><time>2026-03-23T14:14:27Z</time></trkpt><trkpt lat="45.839618942092194" lon="12.124883444782638"><ele>110.6</ele><time>2026-03-23T14:14:28Z</time></trkpt><trkpt lat="45.839696154954645" lon="12.124951627649073"><ele>110.19999999999999</ele><time>2026-03-23T14:14:29Z</time></trkpt><trkpt lat="45.83978527479457" lon="12.125022068934705"><ele>109.80000000000001</ele><time>2026-03-23T14:14:30Z</time></trkpt><trkpt lat="45.83986657234227" lon="12.12508471718589"><ele>109.4</ele><time>2026-03-23T14:14:31Z</time></trkpt><trkpt lat="45.83995338794131" lon="12.1251496490885"><ele>109.0</ele><time>2026-03-23T14:14:32Z</time></trkpt><trkpt lat="45.840064882459096" lon="12.12522785349038"><ele>108.5</ele><time>2026-03-23T14:14:33Z</time></trkpt><trkpt lat="45.84019705608962" lon="12.1253127259076"><ele>108.0</ele><time>2026-03-23T14:14:34Z</time></trkpt><trkpt lat="45.84030783017193" lon="12.125398103281375"><ele>107.5</ele><time>2026-03-23T14:14:35Z</time></trkpt><trkpt lat="45.840403851776344" lon="12.125450630462021"><ele>107.0</ele><time>2026-03-23T14:14:36Z</time></trkpt><trkpt lat="45.84047339318846" lon="12.12550100691743"><ele>106.99999999999999</ele><time>2026-03-23T14:14:37Z</time></trkpt><trkpt lat="45.84055366909605" lon="12.125566680819064"><ele>107.0</ele><time>2026-03-23T14:14:38Z</time></trkpt><trkpt lat="45.84061958945907" lon="12.125617280598954"><ele>107.0</ele><time>2026-03-23T14:14:39Z</time></trkpt><trkpt lat="45.840693827404095" lon="12.125657431158855"><ele>107.0</ele><time>2026-03-23T14:14:40Z</time></trkpt><trkpt lat="45.840758559061584" lon="12.125729540444185"><ele>106.99999999999999</ele><time>2026-03-23T14:14:41Z</time></trkpt><trkpt lat="45.84080751243836" lon="12.12583913804573"><ele>107.0</ele><time>2026-03-23T14:14:42Z</time></trkpt><trkpt lat="45.84084996747754" lon="12.126004215078028"><ele>107.0</ele><time>2026-03-23T14:14:43Z</time></trkpt><trkpt lat="45.84089448060964" lon="12.126166823991793"><ele>106.99999999999999</ele><time>2026-03-23T14:14:44Z</time></trkpt><trkpt lat="45.84092688396889" lon="12.126306628303105"><ele>106.99999999999999</ele><time>2026-03-23T14:14:45Z</time></trkpt><trkpt lat="45.8409390889558" lon="12.126446799771534"><ele>107.0</ele><time>2026-03-23T14:14:46Z</time></trkpt><trkpt lat="45.840975106690635" lon="12.12656949761968"><ele>107.0</ele><time>2026-03-23T14:14:47Z</time></trkpt><trkpt lat="45.84105233396494" lon="12.126725985778215"><ele>106.25</ele><time>2026-03-23T14:14:48Z</time></trkpt><trkpt lat="45.84112053068497" lon="12.126890697867593"><ele>105.5</ele><time>2026-03-23T14:14:49Z</time></trkpt><trkpt lat="45.8411554268119" lon="12.12704090691423"><ele>104.75</ele><time>2026-03-23T14:14:50Z</time></trkpt><trkpt lat="45.84118777816932" lon="12.12721633015628"><ele>104.0</ele><time>2026-03-23T14:14:51Z</time></trkpt><trkpt lat="45.84123225572706" lon="12.12735580787246"><ele>104.0</ele><time>2026-03-23T14:14:52Z</time></trkpt><trkpt lat="45.841265328496085" lon="12.12753115306918"><ele>104.0</ele><time>2026-03-23T14:14:53Z</time></trkpt><trkpt lat="45.84128373674918" lon="12.127717436543705"><ele>104.0</ele><time>2026-03-23T14:14:54Z</time></trkpt><trkpt lat="45.841305325728165" lon="12.12793365655108"><ele>104.0</ele><time>2026-03-23T14:14:55Z</time></trkpt><trkpt lat="45.841324206089574" lon="12.128171570651855"><ele>104.6</ele><time>2026-03-23T14:14:56Z</time></trkpt><trkpt lat="45.84134593070447" lon="12.128374407453016"><ele>105.2</ele><time>2026-03-23T14:14:57Z</time></trkpt><trkpt lat="45.84134899589882" lon="12.12854183675438"><ele>105.79999999999998</ele><time>2026-03-23T14:14:58Z</time></trkpt><trkpt lat="45.84136052098788" lon="12.128666580073357"><ele>106.39999999999999</ele><time>2026-03-23T14:14:59Z</time></trkpt><trkpt lat="45.84135620131985" lon="12.128775946013068"><ele>107.0</ele><time>2026-03-23T14:15:00Z</time></trkpt><trkpt lat="45.841339671896996" lon="12.128898958898995"><ele>107.0</ele><time>2026-03-23T14:15:01Z</time></trkpt><trkpt lat="45.841327373315295" lon="12.129015420773438"><ele>106.99999999999999</ele><time>2026-03-23T14:15:02Z</time></trkpt><trkpt lat="45.84134117489185" lon="12.129141980705796"><ele>106.99999999999999</ele><time>2026-03-23T14:15:03Z</time></trkpt><trkpt lat="45.8413777890766" lon="12.129266860164426"><ele>107.0</ele><time>2026-03-23T14:15:04Z</time></trkpt><trkpt lat="45.84143415012801" lon="12.12940088204068"><ele>107.0</ele><time>2026-03-23T14:15:05Z</time></trkpt><trkpt lat="45.84150879139682" lon="12.129546241019677"><ele>107.0</ele><time>2026-03-23T14:15:06Z</time></trkpt><trkpt lat="45.84158240193829" lon="12.129697187330308"><ele>107.0</ele><time>2026-03-23T14:15:07Z</time></trkpt><trkpt lat="45.84164356783966" lon="12.129866283828314"><ele>107.0</ele><time>2026-03-23T14:15:08Z</time></trkpt><trkpt lat="45.841722218971995" lon="12.130035118272025"><ele>107.0</ele><time>2026-03-23T14:15:09Z</time></trkpt><trkpt lat="45.8417665710364" lon="12.130209325552073"><ele>106.75</ele><time>2026-03-23T14:15:10Z</time></trkpt><trkpt lat="45.84182850683254" lon="12.130384107292238"><ele>106.5</ele><time>2026-03-23T14:15:11Z</time></trkpt><trkpt lat="45.84189627533551" lon="12.130544927960875"><ele>106.25</ele><time>2026-03-23T14:15:12Z</time></trkpt><trkpt lat="45.84195574764525" lon="12.130694888126893"><ele>106.0</ele><time>2026-03-23T14:15:13Z</time></trkpt><trkpt lat="45.8419920992217" lon="12.130814376149686"><ele>106.00000000000001</ele><time>2026-03-23T14:15:14Z</time></trkpt><trkpt lat="45.84199788579925" lon="12.130946015319966"><ele>106.0</ele><time>2026-03-23T14:15:15Z</time></trkpt><trkpt lat="45.84198600591506" lon="12.131079801601139"><ele>106.0</ele><time>2026-03-23T14:15:16Z</time></trkpt><trkpt lat="45.84197197774717" lon="12.131194990433453"><ele>106.0</ele><time>2026-03-23T14:15:17Z</time></trkpt><trkpt lat="45.84197230373157" lon="12.13133966370222"><ele>106.00000000000001</ele><time>2026-03-23T14:15:19Z</time></trkpt><trkpt lat="45.84202736743661" lon="12.131284740886048"><ele>106.0</ele><time>2026-03-23T14:15:22Z</time></trkpt><trkpt lat="45.842006639591794" lon="12.13114589373628"><ele>106.0</ele><time>2026-03-23T14:15:24Z</time></trkpt><trkpt lat="45.841984278042744" lon="12.131017704552415"><ele>106.0</ele><time>2026-03-23T14:15:26Z</time></trkpt><trkpt lat="45.842076220116404" lon="12.130951261587475"><ele>106.0</ele><time>2026-03-23T14:15:28Z</time></trkpt><trkpt lat="45.84217539771739" lon="12.130946000251187"><ele>106.0</ele><time>2026-03-23T14:15:30Z</time></trkpt><trkpt lat="45.84227545308062" lon="12.130979802288234"><ele>106.0</ele><time>2026-03-23T14:15:32Z</time></trkpt><trkpt lat="45.842287680353735" lon="12.131128533781084"><ele>106.00000000000001</ele><time>2026-03-23T14:15:34Z</time></trkpt><trkpt lat="45.84230218603627" lon="12.131285693539919"><ele>106.0</ele><time>2026-03-23T14:15:36Z</time></trkpt><trkpt lat="45.84238456741561" lon="12.131260038239294"><ele>106.0</ele><time>2026-03-23T14:15:38Z</time></trkpt><trkpt lat="45.842461780132545" lon="12.131295395954687"><ele>106.0</ele><time>2026-03-23T14:15:40Z</time></trkpt><trkpt lat="45.84252211906319" lon="12.13135493261254"><ele>106.00000000000001</ele><time>2026-03-23T14:15:41Z</time></trkpt><trkpt lat="45.84258484084952" lon="12.131411222491854"><ele>106.0</ele><time>2026-03-23T14:15:42Z</time></trkpt><trkpt lat="45.84269675825565" lon="12.13146194987366"><ele>106.0</ele><time>2026-03-23T14:15:44Z</time></trkpt><trkpt lat="45.842794667526384" lon="12.131565301367292"><ele>106.0</ele><time>2026-03-23T14:15:46Z</time></trkpt><trkpt lat="45.84292448260191" lon="12.131563564594732"><ele>106.0</ele><time>2026-03-23T14:15:48Z</time></trkpt><trkpt lat="45.84299531902716" lon="12.131571641337228"><ele>106.0</ele><time>2026-03-23T14:15:49Z</time></trkpt><trkpt lat="45.84306444203497" lon="12.131629894893768"><ele>106.0</ele><time>2026-03-23T14:15:50Z</time></trkpt><trkpt lat="45.84310946071406" lon="12.131723238943076"><ele>106.0</ele><time>2026-03-23T14:15:51Z</time></trkpt><trkpt lat="45.84316510119368" lon="12.131852368212344"><ele>106.0</ele><time>2026-03-23T14:15:52Z</time></trkpt><trkpt lat="45.843230322249234" lon="12.131981394160617"><ele>106.0</ele><time>2026-03-23T14:15:53Z</time></trkpt><trkpt lat="45.843313411918615" lon="12.132117729825335"><ele>106.0</ele><time>2026-03-23T14:15:54Z</time></trkpt><trkpt lat="45.84340629598276" lon="12.132251096067963"><ele>105.6</ele><time>2026-03-23T14:15:55Z</time></trkpt><trkpt lat="45.843489833011574" lon="12.132374120184979"><ele>105.19999999999999</ele><time>2026-03-23T14:15:56Z</time></trkpt><trkpt lat="45.84355773190418" lon="12.13251212588008"><ele>104.80000000000001</ele><time>2026-03-23T14:15:57Z</time></trkpt><trkpt lat="45.84362845574818" lon="12.1326546065088"><ele>104.4</ele><time>2026-03-23T14:15:58Z</time></trkpt><trkpt lat="45.84368789256428" lon="12.132748231954922"><ele>104.0</ele><time>2026-03-23T14:15:59Z</time></trkpt><trkpt lat="45.84377313396903" lon="12.132822204078515"><ele>104.0</ele><time>2026-03-23T14:16:00Z</time></trkpt><trkpt lat="45.84384238900837" lon="12.132896870098365"><ele>104.0</ele><time>2026-03-23T14:16:01Z</time></trkpt><trkpt lat="45.84388630557182" lon="12.13299565898613"><ele>104.0</ele><time>2026-03-23T14:16:02Z</time></trkpt><trkpt lat="45.84382567508329" lon="12.133145504852353"><ele>104.0</ele><time>2026-03-23T14:16:04Z</time></trkpt><trkpt lat="45.84368526024558" lon="12.133164751801955"><ele>104.0</ele><time>2026-03-23T14:16:06Z</time></trkpt><trkpt lat="45.84360046677668" lon="12.133147284334484"><ele>104.0</ele><time>2026-03-23T14:16:07Z</time></trkpt><trkpt lat="45.84354214698003" lon="12.133090397015401"><ele>104.0</ele><time>2026-03-23T14:16:08Z</time></trkpt><trkpt lat="45.84349516604846" lon="12.132910019735194"><ele>104.0</ele><time>2026-03-23T14:16:10Z</time></trkpt><trkpt lat="45.84346020895468" lon="12.132807483366175"><ele>104.0</ele><time>2026-03-23T14:16:11Z</time></trkpt><trkpt lat="45.843393133545014" lon="12.132717617048119"><ele>104.0</ele><time>2026-03-23T14:16:12Z</time></trkpt><trkpt lat="45.84331219491421" lon="12.132617869656668"><ele>104.4</ele><time>2026-03-23T14:16:13Z</time></trkpt><trkpt lat="45.84325877305313" lon="12.132533919627667"><ele>104.80000000000001</ele><time>2026-03-23T14:16:14Z</time></trkpt><trkpt lat="45.843214089692964" lon="12.132418424621816"><ele>105.19999999999999</ele><time>2026-03-23T14:16:15Z</time></trkpt><trkpt lat="45.843191120528736" lon="12.132285021619769"><ele>105.6</ele><time>2026-03-23T14:16:16Z</time></trkpt><trkpt lat="45.843159082824364" lon="12.132153277289717"><ele>106.0</ele><time>2026-03-23T14:16:17Z</time></trkpt><trkpt lat="45.84312119077284" lon="12.13200929208606"><ele>106.0</ele><time>2026-03-23T14:16:18Z</time></trkpt><trkpt lat="45.8430723593525" lon="12.13189480980368"><ele>106.0</ele><time>2026-03-23T14:16:19Z</time></trkpt><trkpt lat="45.84295041504342" lon="12.13177332502276"><ele>106.0</ele><time>2026-03-23T14:16:21Z</time></trkpt><trkpt lat="45.84280656074106" lon="12.131773066722394"><ele>106.0</ele><time>2026-03-23T14:16:23Z</time></trkpt><trkpt lat="45.84273122171807" lon="12.13181512014667"><ele>106.00000000000001</ele><time>2026-03-23T14:16:24Z</time></trkpt><trkpt lat="45.842679273741915" lon="12.13191907334635"><ele>106.0</ele><time>2026-03-23T14:16:26Z</time></trkpt><trkpt lat="45.8426947587391" lon="12.132040565774"><ele>106.0</ele><time>2026-03-23T14:16:27Z</time></trkpt><trkpt lat="45.84274767852956" lon="12.13215272778914"><ele>106.0</ele><time>2026-03-23T14:16:28Z</time></trkpt><trkpt lat="45.84281704242902" lon="12.132180153323263"><ele>106.00000000000001</ele><time>2026-03-23T14:16:29Z</time></trkpt><trkpt lat="45.84289616096948" lon="12.132171180456881"><ele>106.0</ele><time>2026-03-23T14:16:30Z</time></trkpt><trkpt lat="45.842962495322745" lon="12.132150730233558"><ele>106.0</ele><time>2026-03-23T14:16:31Z</time></trkpt><trkpt lat="45.84304533762871" lon="12.13224275969506"><ele>106.0</ele><time>2026-03-23T14:16:33Z</time></trkpt><trkpt lat="45.84310164332386" lon="12.13237540157345"><ele>106.0</ele><time>2026-03-23T14:16:34Z</time></trkpt><trkpt lat="45.8431779081066" lon="12.13249421343831"><ele>106.0</ele><time>2026-03-23T14:16:35Z</time></trkpt><trkpt lat="45.84324521028773" lon="12.132606989696356"><ele>106.0</ele><time>2026-03-23T14:16:36Z</time></trkpt><trkpt lat="45.84329628328193" lon="12.13271878366277"><ele>106.25</ele><time>2026-03-23T14:16:37Z</time></trkpt><trkpt lat="45.84331485651738" lon="12.132859536515939"><ele>106.5</ele><time>2026-03-23T14:16:38Z</time></trkpt><trkpt lat="45.84333001398745" lon="12.133035814022707"><ele>106.75</ele><time>2026-03-23T14:16:39Z</time></trkpt><trkpt lat="45.84335368378677" lon="12.13324108783005"><ele>107.0</ele><time>2026-03-23T14:16:40Z</time></trkpt><trkpt lat="45.84337733607186" lon="12.13339060643907"><ele>106.8</ele><time>2026-03-23T14:16:41Z</time></trkpt><trkpt lat="45.84340028622939" lon="12.133505107351699"><ele>106.6</ele><time>2026-03-23T14:16:42Z</time></trkpt><trkpt lat="45.84344902990956" lon="12.133595203440462"><ele>106.39999999999999</ele><time>2026-03-23T14:16:43Z</time></trkpt><trkpt lat="45.84351983492216" lon="12.133654664469411"><ele>106.19999999999999</ele><time>2026-03-23T14:16:44Z</time></trkpt><trkpt lat="45.8436108892774" lon="12.133686067321975"><ele>106.0</ele><time>2026-03-23T14:16:45Z</time></trkpt><trkpt lat="45.843725656839496" lon="12.133726499723586"><ele>106.0</ele><time>2026-03-23T14:16:46Z</time></trkpt><trkpt lat="45.84385866797423" lon="12.13377700562222"><ele>106.0</ele><time>2026-03-23T14:16:47Z</time></trkpt><trkpt lat="45.843985800738935" lon="12.133837649315502"><ele>106.0</ele><time>2026-03-23T14:16:48Z</time></trkpt><trkpt lat="45.84408900731322" lon="12.133904930414484"><ele>106.0</ele><time>2026-03-23T14:16:49Z</time></trkpt><trkpt lat="45.844191370670366" lon="12.133999048650683"><ele>106.00000000000001</ele><time>2026-03-23T14:16:50Z</time></trkpt><trkpt lat="45.844280973928605" lon="12.13409721102775"><ele>106.0</ele><time>2026-03-23T14:16:51Z</time></trkpt><trkpt lat="45.84434442920497" lon="12.134168453271078"><ele>106.0</ele><time>2026-03-23T14:16:52Z</time></trkpt><trkpt lat="45.84440418831752" lon="12.134205567106752"><ele>106.0</ele><time>2026-03-23T14:16:53Z</time></trkpt><trkpt lat="45.84445440661816" lon="12.134097566994418"><ele>106.00000000000001</ele><time>2026-03-23T14:16:55Z</time></trkpt><trkpt lat="45.84445249404336" lon="12.134005465178458"><ele>106.0</ele><time>2026-03-23T14:16:56Z</time></trkpt><trkpt lat="45.84440239086902" lon="12.133930849550728"><ele>106.0</ele><time>2026-03-23T14:16:57Z</time></trkpt><trkpt lat="45.844310457082145" lon="12.133907129950517"><ele>106.0</ele><time>2026-03-23T14:16:58Z</time></trkpt><trkpt lat="45.84419375739503" lon="12.133871558096669"><ele>106.0</ele><time>2026-03-23T14:16:59Z</time></trkpt><trkpt lat="45.84412560216406" lon="12.1338088292041"><ele>106.0</ele><time>2026-03-23T14:17:00Z</time></trkpt><trkpt lat="45.84406975754131" lon="12.13370665756274"><ele>106.0</ele><time>2026-03-23T14:17:01Z</time></trkpt><trkpt lat="45.84398646711086" lon="12.133560490217977"><ele>106.0</ele><time>2026-03-23T14:17:02Z</time></trkpt><trkpt lat="45.843910456498264" lon="12.133458700829125"><ele>106.0</ele><time>2026-03-23T14:17:03Z</time></trkpt><trkpt lat="45.843846409861584" lon="12.133390898974945"><ele>106.0</ele><time>2026-03-23T14:17:04Z</time></trkpt><trkpt lat="45.8437781580068" lon="12.13338851337198"><ele>106.0</ele><time>2026-03-23T14:17:05Z</time></trkpt><trkpt lat="45.84369417406188" lon="12.133423787522222"><ele>106.0</ele><time>2026-03-23T14:17:06Z</time></trkpt><trkpt lat="45.84358561001796" lon="12.133465693121787"><ele>106.0</ele><time>2026-03-23T14:17:07Z</time></trkpt><trkpt lat="45.84347215962973" lon="12.133470235639537"><ele>106.0</ele><time>2026-03-23T14:17:08Z</time></trkpt><trkpt lat="45.843381781657115" lon="12.133394897841129"><ele>106.0</ele><time>2026-03-23T14:17:10Z</time></trkpt><trkpt lat="45.843434627231176" lon="12.13321824628717"><ele>106.0</ele><time>2026-03-23T14:17:12Z</time></trkpt><trkpt lat="45.843504650959474" lon="12.133182845281064"><ele>106.0</ele><time>2026-03-23T14:17:13Z</time></trkpt><trkpt lat="45.843582529125605" lon="12.133183861084575"><ele>106.0</ele><time>2026-03-23T14:17:14Z</time></trkpt><trkpt lat="45.843676821338875" lon="12.133218710119243"><ele>106.0</ele><time>2026-03-23T14:17:15Z</time></trkpt><trkpt lat="45.84380650890632" lon="12.133242395452921"><ele>106.0</ele><time>2026-03-23T14:17:16Z</time></trkpt><trkpt lat="45.843916072828044" lon="12.133237787490375"><ele>106.0</ele><time>2026-03-23T14:17:17Z</time></trkpt><trkpt lat="45.84404140897009" lon="12.133332474322337"><ele>106.0</ele><time>2026-03-23T14:17:19Z</time></trkpt><trkpt lat="45.844097613897084" lon="12.133443923952903"><ele>106.0</ele><time>2026-03-23T14:17:20Z</time></trkpt><trkpt lat="45.844137535701456" lon="12.133558268084558"><ele>106.0</ele><time>2026-03-23T14:17:21Z</time></trkpt><trkpt lat="45.84420895099413" lon="12.133657381953487"><ele>106.0</ele><time>2026-03-23T14:17:22Z</time></trkpt><trkpt lat="45.84427745565117" lon="12.133706454599112"><ele>106.0</ele><time>2026-03-23T14:17:23Z</time></trkpt><trkpt lat="45.84436260723371" lon="12.133615616688356"><ele>106.0</ele><time>2026-03-23T14:17:25Z</time></trkpt><trkpt lat="45.84434255262459" lon="12.133493589923866"><ele>106.0</ele><time>2026-03-23T14:17:26Z</time></trkpt><trkpt lat="45.84428578767993" lon="12.13335679456554"><ele>106.0</ele><time>2026-03-23T14:17:27Z</time></trkpt><trkpt lat="45.844236484144915" lon="12.13319551164817"><ele>106.0</ele><time>2026-03-23T14:17:28Z</time></trkpt><trkpt lat="45.84418001755878" lon="12.133008363672495"><ele>105.5</ele><time>2026-03-23T14:17:29Z</time></trkpt><trkpt lat="45.84411176427906" lon="12.13280983466224"><ele>105.0</ele><time>2026-03-23T14:17:30Z</time></trkpt><trkpt lat="45.84404213320391" lon="12.132634615645324"><ele>104.5</ele><time>2026-03-23T14:17:31Z</time></trkpt><trkpt lat="45.84397475232381" lon="12.13248316478006"><ele>104.0</ele><time>2026-03-23T14:17:32Z</time></trkpt><trkpt lat="45.84393278838753" lon="12.132349408329883"><ele>103.99999999999999</ele><time>2026-03-23T14:17:33Z</time></trkpt><trkpt lat="45.84392199138965" lon="12.132230930322159"><ele>104.0</ele><time>2026-03-23T14:17:34Z</time></trkpt><trkpt lat="45.84386087657115" lon="12.132172548863387"><ele>104.0</ele><time>2026-03-23T14:17:36Z</time></trkpt><trkpt lat="45.843803687831944" lon="12.132257347780884"><ele>104.0</ele><time>2026-03-23T14:17:37Z</time></trkpt><trkpt lat="45.84380133927543" lon="12.132352149821438"><ele>103.99999999999999</ele><time>2026-03-23T14:17:38Z</time></trkpt><trkpt lat="45.84385146099734" lon="12.132428685754764"><ele>104.0</ele><time>2026-03-23T14:17:39Z</time></trkpt><trkpt lat="45.843903313567935" lon="12.132546020619653"><ele>104.0</ele><time>2026-03-23T14:17:40Z</time></trkpt><trkpt lat="45.843978031748264" lon="12.132688062953791"><ele>104.0</ele><time>2026-03-23T14:17:41Z</time></trkpt><trkpt lat="45.84404322738695" lon="12.132834525288452"><ele>104.0</ele><time>2026-03-23T14:17:42Z</time></trkpt><trkpt lat="45.84409880987145" lon="12.13298616774669"><ele>104.0</ele><time>2026-03-23T14:17:43Z</time></trkpt><trkpt lat="45.84413644648278" lon="12.133107852363155"><ele>104.0</ele><time>2026-03-23T14:17:44Z</time></trkpt><trkpt lat="45.84415700299104" lon="12.133250867061586"><ele>104.0</ele><time>2026-03-23T14:17:46Z</time></trkpt><trkpt lat="45.844026885338124" lon="12.133241919894106"><ele>104.0</ele><time>2026-03-23T14:17:48Z</time></trkpt><trkpt lat="45.84396985719267" lon="12.13314622380328"><ele>104.0</ele><time>2026-03-23T14:17:49Z</time></trkpt><trkpt lat="45.84391940927333" lon="12.13300644173953"><ele>104.0</ele><time>2026-03-23T14:17:50Z</time></trkpt><trkpt lat="45.8438633370488" lon="12.132848945017358"><ele>104.0</ele><time>2026-03-23T14:17:51Z</time></trkpt><trkpt lat="45.84382483889619" lon="12.132694151119352"><ele>104.0</ele><time>2026-03-23T14:17:52Z</time></trkpt><trkpt lat="45.843778006444396" lon="12.132545025264841"><ele>104.0</ele><time>2026-03-23T14:17:53Z</time></trkpt><trkpt lat="45.84374727130483" lon="12.132389667947029"><ele>104.0</ele><time>2026-03-23T14:17:54Z</time></trkpt><trkpt lat="45.84371605159915" lon="12.13223828208704"><ele>103.6</ele><time>2026-03-23T14:17:55Z</time></trkpt><trkpt lat="45.8436938606704" lon="12.132097438720711"><ele>103.2</ele><time>2026-03-23T14:17:56Z</time></trkpt><trkpt lat="45.84366860020322" lon="12.131970858742848"><ele>102.8</ele><time>2026-03-23T14:17:57Z</time></trkpt><trkpt lat="45.843658053223244" lon="12.131843896873532"><ele>102.39999999999999</ele><time>2026-03-23T14:17:58Z</time></trkpt><trkpt lat="45.84366404249175" lon="12.131711034142779"><ele>102.0</ele><time>2026-03-23T14:17:59Z</time></trkpt><trkpt lat="45.84365523810047" lon="12.131577312221722"><ele>101.83333333333333</ele><time>2026-03-23T14:18:00Z</time></trkpt><trkpt lat="45.84362248844306" lon="12.131447871601878"><ele>101.66666666666666</ele><time>2026-03-23T14:18:01Z</time></trkpt><trkpt lat="45.84361166806008" lon="12.13134628009323"><ele>101.5</ele><time>2026-03-23T14:18:02Z</time></trkpt><trkpt lat="45.84358816197018" lon="12.13123821503173"><ele>101.33333333333333</ele><time>2026-03-23T14:18:03Z</time></trkpt><trkpt lat="45.84353954367632" lon="12.13114488302788"><ele>101.16666666666666</ele><time>2026-03-23T14:18:04Z</time></trkpt><trkpt lat="45.84348647066523" lon="12.131051105707394"><ele>101.0</ele><time>2026-03-23T14:18:05Z</time></trkpt><trkpt lat="45.84345772439501" lon="12.130931941045096"><ele>101.19999999999999</ele><time>2026-03-23T14:18:06Z</time></trkpt><trkpt lat="45.843445214679555" lon="12.130789324232214"><ele>101.39999999999999</ele><time>2026-03-23T14:18:07Z</time></trkpt><trkpt lat="45.84343407205418" lon="12.130661394407806"><ele>101.6</ele><time>2026-03-23T14:18:08Z</time></trkpt><trkpt lat="45.84341284760075" lon="12.1305543865145"><ele>101.8</ele><time>2026-03-23T14:18:09Z</time></trkpt><trkpt lat="45.84337654447889" lon="12.1304503919463"><ele>102.0</ele><time>2026-03-23T14:18:10Z</time></trkpt><trkpt lat="45.843321816725684" lon="12.130323037897488"><ele>102.0</ele><time>2026-03-23T14:18:11Z</time></trkpt><trkpt lat="45.84326065244342" lon="12.130195662189944"><ele>102.0</ele><time>2026-03-23T14:18:12Z</time></trkpt><trkpt lat="45.84320332347889" lon="12.13004589303748"><ele>102.0</ele><time>2026-03-23T14:18:13Z</time></trkpt><trkpt lat="45.84314474446994" lon="12.129918878049828"><ele>102.0</ele><time>2026-03-23T14:18:14Z</time></trkpt><trkpt lat="45.84307917063898" lon="12.129830089739864"><ele>102.0</ele><time>2026-03-23T14:18:15Z</time></trkpt><trkpt lat="45.84300936593123" lon="12.1297893061066"><ele>102.19999999999999</ele><time>2026-03-23T14:18:16Z</time></trkpt><trkpt lat="45.84286710883067" lon="12.129773855771527"><ele>102.4</ele><time>2026-03-23T14:18:18Z</time></trkpt><trkpt lat="45.842797109099685" lon="12.129736662185476"><ele>102.6</ele><time>2026-03-23T14:18:19Z</time></trkpt><trkpt lat="45.84275037174833" lon="12.129659957407583"><ele>102.80000000000001</ele><time>2026-03-23T14:18:20Z</time></trkpt><trkpt lat="45.84271480752068" lon="12.129546219404558"><ele>103.0</ele><time>2026-03-23T14:18:21Z</time></trkpt><trkpt lat="45.842682537456916" lon="12.129414088941228"><ele>103.0</ele><time>2026-03-23T14:18:22Z</time></trkpt><trkpt lat="45.842676723150106" lon="12.129286795889879"><ele>103.0</ele><time>2026-03-23T14:18:23Z</time></trkpt><trkpt lat="45.84266829599706" lon="12.12912973155319"><ele>103.0</ele><time>2026-03-23T14:18:24Z</time></trkpt><trkpt lat="45.842629865973024" lon="12.128978610132977"><ele>103.0</ele><time>2026-03-23T14:18:26Z</time></trkpt><trkpt lat="45.842580172264654" lon="12.128900367393651"><ele>103.0</ele><time>2026-03-23T14:18:27Z</time></trkpt><trkpt lat="45.842489094817715" lon="12.128815459010246"><ele>103.16666666666667</ele><time>2026-03-23T14:18:29Z</time></trkpt><trkpt lat="45.84240814234244" lon="12.128689446617052"><ele>103.33333333333334</ele><time>2026-03-23T14:18:31Z</time></trkpt><trkpt lat="45.842374681557125" lon="12.128607162808372"><ele>103.5</ele><time>2026-03-23T14:18:32Z</time></trkpt><trkpt lat="45.84235005624223" lon="12.12852287539085"><ele>103.66666666666666</ele><time>2026-03-23T14:18:33Z</time></trkpt><trkpt lat="45.84233625602152" lon="12.128420654978521"><ele>103.83333333333333</ele><time>2026-03-23T14:18:34Z</time></trkpt><trkpt lat="45.842296334388585" lon="12.128324307976516"><ele>104.0</ele><time>2026-03-23T14:18:35Z</time></trkpt><trkpt lat="45.842238293342724" lon="12.128246776680724"><ele>103.83333333333333</ele><time>2026-03-23T14:18:36Z</time></trkpt><trkpt lat="45.84216065601832" lon="12.128153212954217"><ele>103.66666666666666</ele><time>2026-03-23T14:18:37Z</time></trkpt><trkpt lat="45.84209881156645" lon="12.128052192979329"><ele>103.5</ele><time>2026-03-23T14:18:38Z</time></trkpt><trkpt lat="45.84204099732908" lon="12.127950703778602"><ele>103.33333333333334</ele><time>2026-03-23T14:18:39Z</time></trkpt><trkpt lat="45.84199643298923" lon="12.127883034105857"><ele>103.16666666666667</ele><time>2026-03-23T14:18:40Z</time></trkpt><trkpt lat="45.84196682923569" lon="12.127771705045587"><ele>103.0</ele><time>2026-03-23T14:18:41Z</time></trkpt><trkpt lat="45.841951137827174" lon="12.127661915559008"><ele>103.00000000000001</ele><time>2026-03-23T14:18:42Z</time></trkpt><trkpt lat="45.84191976549276" lon="12.127553746790053"><ele>103.0</ele><time>2026-03-23T14:18:43Z</time></trkpt><trkpt lat="45.841861757710355" lon="12.127447139210371"><ele>103.0</ele><time>2026-03-23T14:18:44Z</time></trkpt><trkpt lat="45.84181459740049" lon="12.127359602720214"><ele>103.0</ele><time>2026-03-23T14:18:45Z</time></trkpt><trkpt lat="45.841852305750024" lon="12.12720747810569"><ele>103.00000000000001</ele><time>2026-03-23T14:18:47Z</time></trkpt><trkpt lat="45.84185358027416" lon="12.127108594831551"><ele>103.0</ele><time>2026-03-23T14:18:48Z</time></trkpt><trkpt lat="45.84181013251477" lon="12.12702335483139"><ele>103.16666666666667</ele><time>2026-03-23T14:18:49Z</time></trkpt><trkpt lat="45.841757632178215" lon="12.126946582948431"><ele>103.33333333333334</ele><time>2026-03-23T14:18:50Z</time></trkpt><trkpt lat="45.8417012249445" lon="12.126857696427557"><ele>103.5</ele><time>2026-03-23T14:18:51Z</time></trkpt><trkpt lat="45.84165282569649" lon="12.126776782258496"><ele>103.66666666666666</ele><time>2026-03-23T14:18:52Z</time></trkpt><trkpt lat="45.841580509659536" lon="12.12668318283928"><ele>103.83333333333333</ele><time>2026-03-23T14:18:54Z</time></trkpt><trkpt lat="45.84152170455026" lon="12.126804053343548"><ele>104.0</ele><time>2026-03-23T14:18:57Z</time></trkpt><trkpt lat="45.84150814525317" lon="12.126902085703732"><ele>104.0</ele><time>2026-03-23T14:18:58Z</time></trkpt><trkpt lat="45.8415258975687" lon="12.126995525066414"><ele>104.0</ele><time>2026-03-23T14:18:59Z</time></trkpt><trkpt lat="45.84158361292807" lon="12.12719423046327"><ele>104.0</ele><time>2026-03-23T14:19:01Z</time></trkpt><trkpt lat="45.84163910979586" lon="12.127285047797333"><ele>104.0</ele><time>2026-03-23T14:19:02Z</time></trkpt><trkpt lat="45.8416629003284" lon="12.12737657038612"><ele>104.0</ele><time>2026-03-23T14:19:03Z</time></trkpt><trkpt lat="45.84169701273841" lon="12.127509599174491"><ele>103.99999999999999</ele><time>2026-03-23T14:19:04Z</time></trkpt><trkpt lat="45.84173354519858" lon="12.127644004691081"><ele>104.0</ele><time>2026-03-23T14:19:05Z</time></trkpt><trkpt lat="45.84175954675976" lon="12.127788643313416"><ele>104.0</ele><time>2026-03-23T14:19:06Z</time></trkpt><trkpt lat="45.84177333581975" lon="12.127913068517877"><ele>104.0</ele><time>2026-03-23T14:19:07Z</time></trkpt><trkpt lat="45.841790858717964" lon="12.128022651883565"><ele>103.99999999999999</ele><time>2026-03-23T14:19:08Z</time></trkpt><trkpt lat="45.84184293789242" lon="12.128073444759405"><ele>104.0</ele><time>2026-03-23T14:19:10Z</time></trkpt><trkpt lat="45.84194509581814" lon="12.127991410077424"><ele>103.99999999999999</ele><time>2026-03-23T14:19:12Z</time></trkpt><trkpt lat="45.842038971042044" lon="12.128055096616073"><ele>104.0</ele><time>2026-03-23T14:19:14Z</time></trkpt><trkpt lat="45.842083587064735" lon="12.128129538024284"><ele>104.0</ele><time>2026-03-23T14:19:15Z</time></trkpt><trkpt lat="45.842132891815204" lon="12.128217578268856"><ele>104.0</ele><time>2026-03-23T14:19:16Z</time></trkpt><trkpt lat="45.842168943529266" lon="12.12833501432092"><ele>103.99999999999999</ele><time>2026-03-23T14:19:17Z</time></trkpt><trkpt lat="45.842223642761226" lon="12.128467482390139"><ele>104.0</ele><time>2026-03-23T14:19:18Z</time></trkpt><trkpt lat="45.84227842006362" lon="12.128564672863043"><ele>103.99999999999999</ele><time>2026-03-23T14:19:19Z</time></trkpt><trkpt lat="45.84232491832925" lon="12.128645052051912"><ele>104.0</ele><time>2026-03-23T14:19:20Z</time></trkpt><trkpt lat="45.84236855226843" lon="12.12874108716048"><ele>104.0</ele><time>2026-03-23T14:19:21Z</time></trkpt><trkpt lat="45.842387879697796" lon="12.128839923606222"><ele>104.0</ele><time>2026-03-23T14:19:22Z</time></trkpt><trkpt lat="45.84241502980174" lon="12.128959042153832"><ele>103.99999999999999</ele><time>2026-03-23T14:19:23Z</time></trkpt><trkpt lat="45.842450881046936" lon="12.129100262381044"><ele>104.0</ele><time>2026-03-23T14:19:24Z</time></trkpt><trkpt lat="45.842482802851386" lon="12.12921423474492"><ele>104.16666666666666</ele><time>2026-03-23T14:19:25Z</time></trkpt><trkpt lat="45.84255468982695" lon="12.129292607994767"><ele>104.33333333333333</ele><time>2026-03-23T14:19:26Z</time></trkpt><trkpt lat="45.84260700858108" lon="12.129371655566082"><ele>104.5</ele><time>2026-03-23T14:19:27Z</time></trkpt><trkpt lat="45.84260274005864" lon="12.129486248279038"><ele>104.66666666666666</ele><time>2026-03-23T14:19:29Z</time></trkpt><trkpt lat="45.842514485769144" lon="12.12943331883137"><ele>104.83333333333333</ele><time>2026-03-23T14:19:31Z</time></trkpt><trkpt lat="45.842480455940006" lon="12.129347311700496"><ele>105.0</ele><time>2026-03-23T14:19:32Z</time></trkpt><trkpt lat="45.84245702268779" lon="12.12926323392975"><ele>105.0</ele><time>2026-03-23T14:19:33Z</time></trkpt><trkpt lat="45.842408400966264" lon="12.129113704661975"><ele>105.0</ele><time>2026-03-23T14:19:34Z</time></trkpt><trkpt lat="45.84235607422617" lon="12.128985197955533"><ele>105.0</ele><time>2026-03-23T14:19:35.001Z</time></trkpt><trkpt lat="45.84231158195852" lon="12.128903319506755"><ele>105.0</ele><time>2026-03-23T14:19:36.001Z</time></trkpt><trkpt lat="45.842251601215516" lon="12.128826977552247"><ele>105.0</ele><time>2026-03-23T14:19:37.001Z</time></trkpt><trkpt lat="45.842164772011905" lon="12.128887065999118"><ele>105.0</ele><time>2026-03-23T14:19:39Z</time></trkpt><trkpt lat="45.84217545353125" lon="12.128998917260388"><ele>105.0</ele><time>2026-03-23T14:19:40Z</time></trkpt><trkpt lat="45.84221058403582" lon="12.129096449656119"><ele>105.0</ele><time>2026-03-23T14:19:42Z</time></trkpt><trkpt lat="45.842228356624375" lon="12.1291999879254"><ele>105.0</ele><time>2026-03-23T14:19:44Z</time></trkpt><trkpt lat="45.84230730472862" lon="12.129316458918447"><ele>105.0</ele><time>2026-03-23T14:19:45Z</time></trkpt><trkpt lat="45.84231394072886" lon="12.129420959363337"><ele>105.0</ele><time>2026-03-23T14:19:46Z</time></trkpt><trkpt lat="45.84233079118631" lon="12.129515585427734"><ele>105.0</ele><time>2026-03-23T14:19:48Z</time></trkpt><trkpt lat="45.84246298804102" lon="12.129614988746479"><ele>105.0</ele><time>2026-03-23T14:19:50Z</time></trkpt><trkpt lat="45.842577869479086" lon="12.129643644806933"><ele>105.0</ele><time>2026-03-23T14:19:51Z</time></trkpt><trkpt lat="45.84263790651727" lon="12.129683078738145"><ele>105.0</ele><time>2026-03-23T14:19:52Z</time></trkpt><trkpt lat="45.84268445222202" lon="12.129848406747591"><ele>104.83333333333333</ele><time>2026-03-23T14:19:54Z</time></trkpt><trkpt lat="45.84266245776507" lon="12.129950565321854"><ele>104.66666666666666</ele><time>2026-03-23T14:19:55Z</time></trkpt><trkpt lat="45.84261111502405" lon="12.130073466389549"><ele>104.5</ele><time>2026-03-23T14:19:56Z</time></trkpt><trkpt lat="45.84252010803843" lon="12.130090691351937"><ele>104.33333333333333</ele><time>2026-03-23T14:19:57Z</time></trkpt><trkpt lat="45.842536021007476" lon="12.130239326703158"><ele>104.16666666666666</ele><time>2026-03-23T14:19:59Z</time></trkpt><trkpt lat="45.84260181917657" lon="12.130211991497644"><ele>104.0</ele><time>2026-03-23T14:20:00Z</time></trkpt><trkpt lat="45.84273515009073" lon="12.130208786899374"><ele>103.75</ele><time>2026-03-23T14:20:02Z</time></trkpt><trkpt lat="45.84284363940775" lon="12.130243567412798"><ele>103.5</ele><time>2026-03-23T14:20:04Z</time></trkpt><trkpt lat="45.842848870766794" lon="12.130419707197486"><ele>103.25</ele><time>2026-03-23T14:20:06Z</time></trkpt><trkpt lat="45.84282035892897" lon="12.130561717518061"><ele>103.0</ele><time>2026-03-23T14:20:07Z</time></trkpt><trkpt lat="45.84282625809525" lon="12.13076281451024"><ele>103.00000000000001</ele><time>2026-03-23T14:20:09Z</time></trkpt><trkpt lat="45.842834859312255" lon="12.13087166404227"><ele>103.0</ele><time>2026-03-23T14:20:10Z</time></trkpt><trkpt lat="45.842916143934694" lon="12.130950984607534"><ele>103.0</ele><time>2026-03-23T14:20:12Z</time></trkpt><trkpt lat="45.8429940555843" lon="12.130959066616047"><ele>103.0</ele><time>2026-03-23T14:20:13Z</time></trkpt><trkpt lat="45.84301623782733" lon="12.131096067393162"><ele>103.00000000000001</ele><time>2026-03-23T14:20:15Z</time></trkpt><trkpt lat="45.8429860826605" lon="12.131192264235626"><ele>103.0</ele><time>2026-03-23T14:20:16Z</time></trkpt><trkpt lat="45.84294165545933" lon="12.131296370263515"><ele>103.00000000000001</ele><time>2026-03-23T14:20:17Z</time></trkpt><trkpt lat="45.842906686572796" lon="12.131389669109586"><ele>103.0</ele><time>2026-03-23T14:20:18Z</time></trkpt><trkpt lat="45.84281540477901" lon="12.131415091347066"><ele>103.0</ele><time>2026-03-23T14:20:20Z</time></trkpt><trkpt lat="45.84271572390694" lon="12.13141462873847"><ele>103.0</ele><time>2026-03-23T14:20:22Z</time></trkpt><trkpt lat="45.842753430177574" lon="12.131548049775935"><ele>103.00000000000001</ele><time>2026-03-23T14:20:24Z</time></trkpt><trkpt lat="45.842827912489746" lon="12.131572536511293"><ele>103.0</ele><time>2026-03-23T14:20:25Z</time></trkpt><trkpt lat="45.84291888298943" lon="12.131561616655322"><ele>103.60000000000001</ele><time>2026-03-23T14:20:26Z</time></trkpt><trkpt lat="45.843010361239735" lon="12.13157013624143"><ele>104.2</ele><time>2026-03-23T14:20:27Z</time></trkpt><trkpt lat="45.84307525865015" lon="12.131630868037146"><ele>104.8</ele><time>2026-03-23T14:20:28Z</time></trkpt><trkpt lat="45.84312376151015" lon="12.131737095097717"><ele>105.4</ele><time>2026-03-23T14:20:29Z</time></trkpt><trkpt lat="45.843183646749395" lon="12.131848767146874"><ele>106.0</ele><time>2026-03-23T14:20:30Z</time></trkpt><trkpt lat="45.84326463709404" lon="12.131972832476785"><ele>106.0</ele><time>2026-03-23T14:20:31Z</time></trkpt><trkpt lat="45.84334523161844" lon="12.132128486536027"><ele>106.0</ele><time>2026-03-23T14:20:32Z</time></trkpt><trkpt lat="45.843436710080276" lon="12.132275660150217"><ele>106.0</ele><time>2026-03-23T14:20:33Z</time></trkpt><trkpt lat="45.8435119221223" lon="12.132402572923883"><ele>106.0</ele><time>2026-03-23T14:20:34Z</time></trkpt><trkpt lat="45.843580635184324" lon="12.132530373716769"><ele>105.6</ele><time>2026-03-23T14:20:35Z</time></trkpt><trkpt lat="45.84363895339142" lon="12.132624387130072"><ele>105.19999999999999</ele><time>2026-03-23T14:20:36Z</time></trkpt><trkpt lat="45.84371050360277" lon="12.132749105502707"><ele>104.80000000000001</ele><time>2026-03-23T14:20:37Z</time></trkpt><trkpt lat="45.843798702509226" lon="12.132838964353159"><ele>104.4</ele><time>2026-03-23T14:20:38Z</time></trkpt><trkpt lat="45.84386520066767" lon="12.132915432407524"><ele>104.0</ele><time>2026-03-23T14:20:39Z</time></trkpt><trkpt lat="45.843862869986204" lon="12.133080595783937"><ele>103.99999999999999</ele><time>2026-03-23T14:20:41Z</time></trkpt><trkpt lat="45.84380436478214" lon="12.133159014222652"><ele>104.0</ele><time>2026-03-23T14:20:42Z</time></trkpt><trkpt lat="45.84373018023528" lon="12.133210995280564"><ele>104.0</ele><time>2026-03-23T14:20:43Z</time></trkpt><trkpt lat="45.84363256038947" lon="12.133173800495946"><ele>104.0</ele><time>2026-03-23T14:20:44Z</time></trkpt><trkpt lat="45.843568883954696" lon="12.13316258749649"><ele>103.99999999999999</ele><time>2026-03-23T14:20:45Z</time></trkpt><trkpt lat="45.84353078097087" lon="12.133085460672893"><ele>104.0</ele><time>2026-03-23T14:20:46Z</time></trkpt><trkpt lat="45.84350912471251" lon="12.132952242958208"><ele>104.0</ele><time>2026-03-23T14:20:47Z</time></trkpt><trkpt lat="45.84347178230343" lon="12.132821816721862"><ele>104.0</ele><time>2026-03-23T14:20:48Z</time></trkpt><trkpt lat="45.843409856559184" lon="12.132732902301514"><ele>104.0</ele><time>2026-03-23T14:20:49Z</time></trkpt><trkpt lat="45.843321032859414" lon="12.132624312218017"><ele>104.0</ele><time>2026-03-23T14:20:50Z</time></trkpt><trkpt lat="45.84325500088164" lon="12.132528457324748"><ele>104.0</ele><time>2026-03-23T14:20:51Z</time></trkpt><trkpt lat="45.84321119102652" lon="12.132416306870306"><ele>104.4</ele><time>2026-03-23T14:20:52Z</time></trkpt><trkpt lat="45.84318582062146" lon="12.132285993360055"><ele>104.80000000000001</ele><time>2026-03-23T14:20:53Z</time></trkpt><trkpt lat="45.843150865867415" lon="12.132128860237234"><ele>105.19999999999999</ele><time>2026-03-23T14:20:54Z</time></trkpt><trkpt lat="45.84310840570296" lon="12.13198074304151"><ele>105.6</ele><time>2026-03-23T14:20:55Z</time></trkpt><trkpt lat="45.843063805434156" lon="12.131877781431669"><ele>106.0</ele><time>2026-03-23T14:20:56Z</time></trkpt><trkpt lat="45.843020469449556" lon="12.131807457894954"><ele>106.00000000000001</ele><time>2026-03-23T14:20:57Z</time></trkpt><trkpt lat="45.8429658281993" lon="12.131762490866874"><ele>106.0</ele><time>2026-03-23T14:20:58Z</time></trkpt><trkpt lat="45.84289434200461" lon="12.131759918432936"><ele>106.0</ele><time>2026-03-23T14:20:59Z</time></trkpt><trkpt lat="45.842811046538024" lon="12.131779914057992"><ele>106.0</ele><time>2026-03-23T14:21:00Z</time></trkpt><trkpt lat="45.842726600615784" lon="12.131805683091399"><ele>106.00000000000001</ele><time>2026-03-23T14:21:01Z</time></trkpt><trkpt lat="45.84267827047723" lon="12.131928521471178"><ele>106.0</ele><time>2026-03-23T14:21:03Z</time></trkpt><trkpt lat="45.84270947684039" lon="12.132049694380738"><ele>106.00000000000001</ele><time>2026-03-23T14:21:04Z</time></trkpt><trkpt lat="45.84276039381077" lon="12.132162628234289"><ele>106.0</ele><time>2026-03-23T14:21:05Z</time></trkpt><trkpt lat="45.84282895167064" lon="12.132186630113694"><ele>106.0</ele><time>2026-03-23T14:21:06Z</time></trkpt><trkpt lat="45.842920351630156" lon="12.132164691085555"><ele>106.0</ele><time>2026-03-23T14:21:07Z</time></trkpt><trkpt lat="45.84299322430088" lon="12.13215325245471"><ele>106.00000000000001</ele><time>2026-03-23T14:21:08Z</time></trkpt><trkpt lat="45.843063945334414" lon="12.132280655137567"><ele>106.0</ele><time>2026-03-23T14:21:10Z</time></trkpt><trkpt lat="45.84311759378285" lon="12.13240850925213"><ele>106.19999999999999</ele><time>2026-03-23T14:21:11Z</time></trkpt><trkpt lat="45.84318247544916" lon="12.132528560280077"><ele>106.39999999999999</ele><time>2026-03-23T14:21:12Z</time></trkpt><trkpt lat="45.84325047891226" lon="12.132648384843389"><ele>106.6</ele><time>2026-03-23T14:21:13Z</time></trkpt><trkpt lat="45.84330014168166" lon="12.13277357949036"><ele>106.8</ele><time>2026-03-23T14:21:14Z</time></trkpt><trkpt lat="45.8433163617378" lon="12.132903625702085"><ele>107.0</ele><time>2026-03-23T14:21:15Z</time></trkpt><trkpt lat="45.84332470638874" lon="12.133070879010003"><ele>106.8</ele><time>2026-03-23T14:21:16Z</time></trkpt><trkpt lat="45.84334923997622" lon="12.133248886465426"><ele>106.6</ele><time>2026-03-23T14:21:17Z</time></trkpt><trkpt lat="45.84337231268199" lon="12.133394210122413"><ele>106.39999999999999</ele><time>2026-03-23T14:21:18Z</time></trkpt><trkpt lat="45.843395656077135" lon="12.133501735215534"><ele>106.19999999999999</ele><time>2026-03-23T14:21:19Z</time></trkpt><trkpt lat="45.843432412726074" lon="12.133599911120132"><ele>106.0</ele><time>2026-03-23T14:21:20Z</time></trkpt><trkpt lat="45.84350750891288" lon="12.133660857739098"><ele>106.0</ele><time>2026-03-23T14:21:21Z</time></trkpt><trkpt lat="45.843604308780215" lon="12.133697995373923"><ele>106.0</ele><time>2026-03-23T14:21:22Z</time></trkpt><trkpt lat="45.84370942925911" lon="12.133701614843623"><ele>106.0</ele><time>2026-03-23T14:21:23Z</time></trkpt><trkpt lat="45.84386265510679" lon="12.133763383457312"><ele>106.0</ele><time>2026-03-23T14:21:24Z</time></trkpt><trkpt lat="45.84399253821095" lon="12.133841297444237"><ele>106.0</ele><time>2026-03-23T14:21:25Z</time></trkpt><trkpt lat="45.84409361248779" lon="12.133914717620637"><ele>106.0</ele><time>2026-03-23T14:21:26Z</time></trkpt><trkpt lat="45.844183866049526" lon="12.13404146937898"><ele>106.0</ele><time>2026-03-23T14:21:27Z</time></trkpt><trkpt lat="45.84428572859623" lon="12.134117321035001"><ele>106.0</ele><time>2026-03-23T14:21:28Z</time></trkpt><trkpt lat="45.84436224987848" lon="12.13418385370274"><ele>106.0</ele><time>2026-03-23T14:21:29Z</time></trkpt><trkpt lat="45.844447913179145" lon="12.134170422056728"><ele>106.0</ele><time>2026-03-23T14:21:31Z</time></trkpt><trkpt lat="45.84444231932864" lon="12.134025963805918"><ele>106.0</ele><time>2026-03-23T14:21:33Z</time></trkpt><trkpt lat="45.8443995593814" lon="12.133953934849442"><ele>106.0</ele><time>2026-03-23T14:21:34Z</time></trkpt><trkpt lat="45.84432294410267" lon="12.133909176972464"><ele>106.0</ele><time>2026-03-23T14:21:35Z</time></trkpt><trkpt lat="45.844214089215086" lon="12.133883216945696"><ele>106.0</ele><time>2026-03-23T14:21:36Z</time></trkpt><trkpt lat="45.84413066373681" lon="12.133834156820686"><ele>106.0</ele><time>2026-03-23T14:21:37Z</time></trkpt><trkpt lat="45.84407254152652" lon="12.133722366234254"><ele>106.0</ele><time>2026-03-23T14:21:38Z</time></trkpt><trkpt lat="45.84399593109894" lon="12.13357510953893"><ele>106.0</ele><time>2026-03-23T14:21:39Z</time></trkpt><trkpt lat="45.843909365326674" lon="12.133465015245303"><ele>106.0</ele><time>2026-03-23T14:21:40Z</time></trkpt><trkpt lat="45.8438354888286" lon="12.133394078609353"><ele>106.0</ele><time>2026-03-23T14:21:41Z</time></trkpt><trkpt lat="45.84368537446512" lon="12.133432103448888"><ele>106.0</ele><time>2026-03-23T14:21:43Z</time></trkpt><trkpt lat="45.843578595243464" lon="12.133474895355358"><ele>106.0</ele><time>2026-03-23T14:21:44Z</time></trkpt><trkpt lat="45.843483612878664" lon="12.13347348101431"><ele>106.0</ele><time>2026-03-23T14:21:45Z</time></trkpt><trkpt lat="45.84341771600489" lon="12.133458108322584"><ele>106.0</ele><time>2026-03-23T14:21:46Z</time></trkpt><trkpt lat="45.84340296775577" lon="12.133293808552207"><ele>106.0</ele><time>2026-03-23T14:21:48Z</time></trkpt><trkpt lat="45.8434548388925" lon="12.133207580757231"><ele>106.0</ele><time>2026-03-23T14:21:49Z</time></trkpt><trkpt lat="45.843518283634815" lon="12.133165662482105"><ele>106.0</ele><time>2026-03-23T14:21:50Z</time></trkpt><trkpt lat="45.843595805658886" lon="12.133197387719804"><ele>106.0</ele><time>2026-03-23T14:21:51Z</time></trkpt><trkpt lat="45.84371181544419" lon="12.133235252264683"><ele>106.0</ele><time>2026-03-23T14:21:52Z</time></trkpt><trkpt lat="45.84384389231839" lon="12.133248000698154"><ele>106.0</ele><time>2026-03-23T14:21:53Z</time></trkpt><trkpt lat="45.843941536449954" lon="12.133245447393573"><ele>106.0</ele><time>2026-03-23T14:21:54Z</time></trkpt><trkpt lat="45.84400788818293" lon="12.1332763592077"><ele>106.0</ele><time>2026-03-23T14:21:55Z</time></trkpt><trkpt lat="45.84406760988231" lon="12.133357976493144"><ele>106.0</ele><time>2026-03-23T14:21:56Z</time></trkpt><trkpt lat="45.84410620363828" lon="12.133490409655519"><ele>106.0</ele><time>2026-03-23T14:21:57Z</time></trkpt><trkpt lat="45.84418678392986" lon="12.133634553807711"><ele>106.0</ele><time>2026-03-23T14:21:58Z</time></trkpt><trkpt lat="45.844252753441864" lon="12.133703147854105"><ele>106.0</ele><time>2026-03-23T14:21:59Z</time></trkpt><trkpt lat="45.84434973579363" lon="12.133680874096333"><ele>106.0</ele><time>2026-03-23T14:22:01Z</time></trkpt><trkpt lat="45.84435162514645" lon="12.133564850450536"><ele>106.0</ele><time>2026-03-23T14:22:02Z</time></trkpt><trkpt lat="45.844313992441016" lon="12.133438387717051"><ele>106.0</ele><time>2026-03-23T14:22:03Z</time></trkpt><trkpt lat="45.84425529301751" lon="12.133261104610842"><ele>106.0</ele><time>2026-03-23T14:22:04Z</time></trkpt><trkpt lat="45.84420334675979" lon="12.133105140936841"><ele>105.5</ele><time>2026-03-23T14:22:05Z</time></trkpt><trkpt lat="45.84414643833651" lon="12.132917454938415"><ele>105.0</ele><time>2026-03-23T14:22:06Z</time></trkpt><trkpt lat="45.8440800085817" lon="12.132748340132702"><ele>104.5</ele><time>2026-03-23T14:22:07Z</time></trkpt><trkpt lat="45.844004233925205" lon="12.132585547742774"><ele>104.0</ele><time>2026-03-23T14:22:08Z</time></trkpt><trkpt lat="45.84394043012621" lon="12.132404896278723"><ele>104.0</ele><time>2026-03-23T14:22:09Z</time></trkpt><trkpt lat="45.84391311854557" lon="12.132280513955752"><ele>104.0</ele><time>2026-03-23T14:22:10Z</time></trkpt><trkpt lat="45.84389700413051" lon="12.13219076148003"><ele>104.0</ele><time>2026-03-23T14:22:11Z</time></trkpt><trkpt lat="45.8438194759357" lon="12.132200884249116"><ele>104.0</ele><time>2026-03-23T14:22:13Z</time></trkpt><trkpt lat="45.843816703953934" lon="12.132301378518138"><ele>104.0</ele><time>2026-03-23T14:23:01Z</time></trkpt><trkpt lat="45.843821285347595" lon="12.132409783489964"><ele>104.0</ele><time>2026-03-23T14:23:04Z</time></trkpt><trkpt lat="45.84385969819574" lon="12.1324827558188"><ele>104.0</ele><time>2026-03-23T14:23:09Z</time></trkpt><trkpt lat="45.843857358496685" lon="12.132578479850473"><ele>104.0</ele><time>2026-03-23T14:23:12Z</time></trkpt><trkpt lat="45.84383532076846" lon="12.132480427542394"><ele>104.0</ele><time>2026-03-23T14:23:23Z</time></trkpt></trkseg></trk></gpx>